Data for 08/30/2009

Time Sea-Level Adjusted Pressure Absolute Pressure Temperature Relative Humidity Dew Point Precipitation   
(mb) (inHg) (mb) (inHg) (C) (F) (%) (C) (F) (mm) (in)
00:01 1022 30.18 851 25.13 17.9 64.2 38 3.5 38.3 18.3 0.72
00:02 1022 30.18 851 25.13 17.9 64.3 38 3.6 38.4 18.29 0.72
00:03 1022 30.18 851 25.13 18 64.3 38 3.5 38.4 18.28 0.72
00:04 1022 30.18 851 25.13 17.9 64.2 38 3.5 38.3 18.27 0.719
00:05 1022 30.18 851 25.13 17.9 64.2 38 3.6 38.5 18.25 0.719
00:06 1022 30.18 851 25.13 17.9 64.1 38 3.6 38.4 18.22 0.717
00:07 1022 30.18 851 25.13 17.8 64.1 38 3.6 38.4 18.18 0.716
00:08 1022 30.18 851 25.13 17.8 64.1 39 3.8 38.8 18.17 0.715
00:09 1022 30.18 851 25.13 17.8 64 39 3.6 38.5 18.1 0.713
00:10 1022 30.18 851 25.13 17.8 64 39 3.8 38.9 18.09 0.712
00:11 1022 30.18 851 25.13 17.7 63.8 40 4 39.2 18.02 0.709
00:12 1022 30.18 851 25.13 17.6 63.7 39 3.8 38.8 17.96 0.707
00:13 1022 30.18 851 25.13 17.6 63.7 39 3.7 38.7 17.93 0.706
00:14 1022 30.18 851 25.13 17.6 63.7 40 4 39.2 17.99 0.708
00:15 1022 30.18 851 25.13 17.6 63.7 40 3.9 39 17.92 0.706
00:16 1022 30.18 851 25.13 17.6 63.6 40 3.9 39.1 17.95 0.707
00:17 1022 30.18 851 25.13 17.6 63.7 40 3.9 39 17.97 0.707
00:18 1022 30.18 851 25.13 17.6 63.7 40 4 39.2 17.95 0.707
00:19 1022 30.18 851 25.13 17.5 63.6 40 4 39.2 17.93 0.706
00:20 1022 30.18 851 25.13 17.5 63.6 40 4.1 39.3 17.87 0.704
00:21 1022 30.18 851 25.13 17.5 63.5 40 3.9 39 17.84 0.702
00:22 1022 30.18 851 25.13 17.5 63.6 40 4 39.1 17.91 0.705
00:23 1022 30.18 851 25.13 17.5 63.5 40 4 39.2 17.83 0.702
00:24 1022 30.18 851 25.13 17.5 63.4 41 4 39.3 17.84 0.702
00:25 1022 30.18 851 25.13 17.5 63.4 41 4 39.3 17.81 0.701
00:26 1022 30.18 851 25.13 17.4 63.4 41 4.1 39.4 17.78 0.7
00:27 1022 30.18 851 25.13 17.4 63.3 40 3.9 39 17.74 0.698
00:28 1022 30.18 851 25.13 17.5 63.4 41 4.1 39.4 17.81 0.701
00:29 1022 30.18 851 25.13 17.5 63.4 41 4 39.3 17.86 0.703
00:30 1022 30.18 851 25.13 17.4 63.4 41 4 39.3 17.78 0.7
00:31 1022 30.18 851 25.13 17.4 63.3 40 3.9 39 17.77 0.7
00:32 1022 30.18 851 25.13 17.4 63.4 41 4 39.2 17.83 0.702
00:33 1022 30.18 851 25.13 17.5 63.4 41 4.1 39.4 17.84 0.702
00:34 1022 30.18 851 25.13 17.4 63.4 41 4.1 39.4 17.81 0.701
00:35 1022 30.18 851 25.13 17.4 63.3 41 4 39.3 17.74 0.698
00:36 1022 30.18 851 25.13 17.4 63.2 41 4.1 39.3 17.72 0.698
00:37 1022 30.18 851 25.13 17.3 63.2 41 4 39.2 17.7 0.697
00:38 1022 30.18 851 25.13 17.3 63.2 41 4.2 39.6 17.71 0.697
00:39 1022 30.18 851 25.13 17.3 63.1 41 4.2 39.5 17.62 0.694
00:40 1022 30.18 851 25.13 17.3 63.1 41 4.1 39.4 17.66 0.695
00:41 1022 30.18 851 25.13 17.3 63.2 41 4.1 39.5 17.66 0.695
00:42 1022 30.18 851 25.13 17.3 63.1 41 4.1 39.4 17.65 0.695
00:43 1022 30.18 851 25.13 17.3 63.1 41 4.1 39.3 17.63 0.694
00:44 1022 30.18 851 25.13 17.3 63.1 41 4.1 39.4 17.65 0.695
00:45 1022 30.18 851 25.13 17.3 63.1 41 4.1 39.5 17.66 0.695
00:46 1022 30.18 851 25.13 17.3 63.1 42 4.3 39.7 17.63 0.694
00:47 1022 30.18 851 25.13 17.2 63 42 4.2 39.6 17.59 0.693
00:48 1022 30.18 851 25.13 17.2 62.9 42 4.3 39.7 17.55 0.691
00:49 1022 30.18 851 25.13 17.2 62.9 42 4.2 39.5 17.53 0.69
00:50 1022 30.18 851 25.13 17.2 62.9 42 4.3 39.7 17.5 0.689
00:51 1022 30.18 851 25.13 17.1 62.8 42 4.3 39.8 17.48 0.688
00:52 1022 30.18 851 25.13 17.1 62.8 42 4.3 39.8 17.45 0.687
00:53 1022 30.18 851 25.13 17.1 62.8 42 4.2 39.6 17.43 0.686
00:54 1022 30.18 851 25.13 17.1 62.7 42 4.2 39.6 17.47 0.688
00:55 1022 30.18 851 25.13 17.1 62.7 42 4.3 39.7 17.46 0.687
00:56 1022 30.18 851 25.13 17.1 62.8 43 4.4 40 17.43 0.686
00:57 1022 30.18 851 25.13 17 62.7 43 4.3 39.8 17.4 0.685
00:58 1022 30.18 851 25.13 17 62.7 43 4.4 39.8 17.4 0.685
00:59 1022 30.18 851 25.13 17 62.7 43 4.3 39.8 17.42 0.686
01:00 1022 30.18 851 25.13 17.1 62.7 42 4.3 39.7 17.44 0.687
01:01 1022 30.18 851 25.13 17.1 62.7 42 4.3 39.7 17.44 0.687
01:02 1022 30.18 851 25.13 17.1 62.7 43 4.3 39.8 17.4 0.685
01:03 1022 30.18 851 25.13 17 62.6 43 4.4 40 17.38 0.684
01:04 1022 30.18 851 25.13 17 62.6 43 4.4 40 17.35 0.683
01:05 1022 30.18 851 25.13 17 62.6 43 4.4 39.9 17.31 0.681
01:06 1022 30.18 851 25.13 16.9 62.5 43 4.4 40 17.29 0.681
01:07 1022 30.18 851 25.13 16.9 62.4 43 4.3 39.7 17.29 0.681
01:08 1022 30.18 851 25.13 16.9 62.4 43 4.4 39.9 17.28 0.68
01:09 1022 30.18 851 25.13 16.9 62.4 43 4.4 40 17.27 0.68
01:10 1022 30.18 851 25.13 16.9 62.5 43 4.4 39.9 17.28 0.68
01:11 1022 30.18 851 25.13 16.9 62.5 43 4.4 39.9 17.27 0.68
01:12 1022 30.18 851 25.13 16.9 62.5 43 4.4 39.9 17.25 0.679
01:13 1022 30.18 851 25.13 16.9 62.4 43 4.5 40 17.25 0.679
01:14 1022 30.18 851 25.13 16.9 62.4 43 4.4 40 17.27 0.68
01:15 1022 30.18 851 25.13 16.9 62.3 44 4.5 40.2 17.25 0.679
01:16 1022 30.18 851 25.13 16.9 62.3 43 4.4 40 17.19 0.677
01:17 1022 30.18 851 25.13 16.8 62.3 43 4.4 39.9 17.16 0.676
01:18 1022 30.18 851 25.13 16.8 62.3 44 4.5 40 17.13 0.674
01:19 1022 30.18 851 25.13 16.8 62.2 44 4.5 40.1 17.13 0.674
01:20 1022 30.18 851 25.13 16.8 62.2 44 4.5 40.1 17.13 0.674
01:21 1022 30.18 851 25.13 16.8 62.2 44 4.4 40 17.09 0.673
01:22 1022 30.18 851 25.13 16.8 62.2 43 4.3 39.8 17.13 0.674
01:23 1022 30.18 851 25.13 16.8 62.2 43 4.4 39.9 17.13 0.674
01:24 1022 30.18 851 25.13 16.8 62.2 43 4.4 39.9 17.11 0.674
01:25 1022 30.18 851 25.13 16.8 62.2 44 4.6 40.3 17.14 0.675
01:26 1022 30.18 851 25.13 16.7 62 44 4.6 40.2 17.05 0.671
01:27 1022 30.18 851 25.13 16.7 62 44 4.4 39.9 17.04 0.671
01:28 1022 30.18 851 25.13 16.7 62 44 4.6 40.2 17.08 0.672
01:29 1022 30.18 851 25.13 16.7 62 44 4.6 40.2 17.07 0.672
01:30 1022 30.18 851 25.13 16.7 62 44 4.5 40.1 17.04 0.671
01:31 1022 30.18 851 25.13 16.7 62.1 44 4.5 40.1 17.07 0.672
01:32 1022 30.18 851 25.13 16.7 62 44 4.6 40.2 17.08 0.672
01:33 1022 30.18 851 25.13 16.7 62 44 4.5 40 17.06 0.672
01:34 1022 30.18 851 25.13 16.6 62 44 4.5 40.1 17 0.669
01:35 1022 30.18 851 25.13 16.6 61.9 44 4.5 40.1 17 0.669
01:36 1022 30.18 851 25.13 16.6 61.9 44 4.5 40.2 16.97 0.668
01:37 1022 30.18 851 25.13 16.6 61.9 45 4.6 40.3 16.98 0.669
01:38 1022 30.18 851 25.13 16.6 61.9 44 4.5 40.1 16.98 0.669
01:39 1022 30.18 851 25.13 16.6 61.9 44 4.5 40.1 16.94 0.667
01:40 1022 30.18 851 25.13 16.6 61.9 44 4.5 40.1 16.99 0.669
01:41 1022 30.18 851 25.13 16.6 61.9 44 4.5 40 16.96 0.668
01:42 1022 30.18 851 25.13 16.6 61.9 44 4.4 40 17.01 0.67
01:43 1022 30.18 851 25.13 16.6 61.9 44 4.5 40.1 17.04 0.671
01:44 1022 30.18 851 25.13 16.7 62 44 4.5 40.1 17.03 0.67
01:45 1022 30.18 851 25.13 16.6 61.9 44 4.4 40 17.04 0.671
01:46 1022 30.18 851 25.13 16.7 62 44 4.4 40 17 0.669
01:47 1022 30.18 851 25.13 16.7 62 45 4.6 40.3 17 0.669
01:48 1022 30.18 851 25.13 16.6 61.9 44 4.4 40 16.98 0.669
01:49 1022 30.18 851 25.13 16.6 61.9 44 4.6 40.3 16.98 0.669
01:50 1022 30.18 851 25.13 16.6 61.9 44 4.6 40.2 16.96 0.668
01:51 1022 30.18 851 25.13 16.5 61.8 44 4.4 40 16.97 0.668
01:52 1022 30.18 851 25.13 16.6 61.8 44 4.5 40 16.95 0.667
01:53 1022 30.18 851 25.13 16.6 61.8 44 4.5 40.1 16.92 0.666
01:54 1022 30.18 851 25.13 16.5 61.8 45 4.6 40.3 16.87 0.664
01:55 1022 30.18 851 25.13 16.5 61.7 45 4.5 40.1 16.83 0.663
01:56 1022 30.18 851 25.13 16.5 61.8 45 4.6 40.3 16.91 0.666
01:57 1022 30.18 851 25.13 16.5 61.8 44 4.5 40.1 16.9 0.665
01:58 1022 30.18 851 25.13 16.5 61.7 45 4.6 40.3 16.87 0.664
01:59 1022 30.18 851 25.13 16.5 61.7 45 4.6 40.2 16.85 0.663
02:00 1022 30.18 851 25.13 16.5 61.6 45 4.5 40.2 16.82 0.662
02:01 1022 30.18 851 25.13 16.5 61.6 45 4.5 40 16.85 0.663
02:02 1022 30.18 851 25.13 16.5 61.7 45 4.5 40.1 16.85 0.663
02:03 1022 30.18 851 25.13 16.5 61.7 45 4.6 40.2 16.85 0.663
02:04 1022 30.18 851 25.13 16.5 61.7 45 4.6 40.4 16.86 0.664
02:05 1022 30.18 851 25.13 16.5 61.7 45 4.7 40.5 16.84 0.663
02:06 1022 30.18 851 25.13 16.4 61.6 45 4.6 40.3 16.81 0.662
02:07 1022 30.18 851 25.13 16.4 61.5 45 4.5 40.1 16.79 0.661
02:08 1022 30.18 851 25.13 16.4 61.5 45 4.6 40.3 16.78 0.661
02:09 1022 30.18 851 25.13 16.4 61.5 45 4.6 40.2 16.78 0.661
02:10 1022 30.18 851 25.13 16.4 61.5 45 4.6 40.3 16.77 0.66
02:11 1022 30.18 851 25.13 16.4 61.5 45 4.5 40 16.78 0.661
02:12 1022 30.18 851 25.13 16.4 61.6 45 4.5 40.1 16.79 0.661
02:13 1022 30.18 851 25.13 16.4 61.6 45 4.6 40.2 16.81 0.662
02:14 1022 30.18 851 25.13 16.4 61.6 45 4.6 40.3 16.79 0.661
02:15 1022 30.18 851 25.13 16.4 61.6 45 4.6 40.2 16.76 0.66
02:16 1022 30.18 851 25.13 16.4 61.6 45 4.5 40.1 16.8 0.661
02:17 1022 30.18 851 25.13 16.4 61.5 45 4.6 40.4 16.76 0.66
02:18 1022 30.18 851 25.13 16.4 61.5 46 4.7 40.5 16.72 0.658
02:19 1022 30.18 851 25.13 16.3 61.4 46 4.7 40.4 16.66 0.656
02:20 1022 30.18 851 25.13 16.3 61.3 46 4.7 40.4 16.61 0.654
02:21 1022 30.18 851 25.13 16.3 61.3 46 4.6 40.3 16.62 0.654
02:22 1022 30.18 851 25.13 16.2 61.2 46 4.6 40.3 16.56 0.652
02:23 1022 30.18 851 25.13 16.2 61.2 46 4.7 40.4 16.56 0.652
02:24 1022 30.18 851 25.13 16.2 61.1 46 4.6 40.4 16.58 0.653
02:25 1021 30.15 851 25.13 16.2 61.2 46 4.6 40.2 16.55 0.652
02:26 1021 30.15 851 25.13 16.2 61.1 46 4.6 40.3 16.54 0.651
02:27 1021 30.15 851 25.13 16.2 61.1 46 4.6 40.3 16.51 0.65
02:28 1021 30.15 851 25.13 16.2 61.1 46 4.5 40.1 16.53 0.651
02:29 1021 30.15 851 25.13 16.2 61.1 46 4.7 40.4 16.57 0.652
02:30 1021 30.15 851 25.13 16.1 61 46 4.7 40.5 16.45 0.648
02:31 1021 30.15 851 25.13 16.1 61 46 4.7 40.4 16.43 0.647
02:32 1021 30.15 851 25.13 16.1 61 46 4.6 40.3 16.45 0.648
02:33 1021 30.15 851 25.13 16.1 60.9 46 4.7 40.4 16.45 0.648
02:34 1021 30.15 851 25.13 16 60.9 46 4.7 40.4 16.43 0.647
02:35 1021 30.15 851 25.13 16 60.8 46 4.6 40.3 16.35 0.644
02:36 1021 30.15 851 25.13 16 60.8 46 4.6 40.3 16.37 0.644
02:37 1021 30.15 850 25.1 16 60.8 46 4.6 40.3 16.39 0.645
02:38 1021 30.15 850 25.1 16 60.8 47 4.6 40.4 16.42 0.646
02:39 1021 30.15 850 25.1 16.1 60.9 46 4.6 40.2 16.42 0.646
02:40 1021 30.15 850 25.1 16.1 61 46 4.7 40.4 16.47 0.648
02:41 1021 30.15 850 25.1 16.1 60.9 46 4.6 40.3 16.43 0.647
02:42 1021 30.15 850 25.1 16 60.9 46 4.6 40.3 16.44 0.647
02:43 1021 30.15 850 25.1 16.1 61 46 4.4 40 16.48 0.649
02:44 1021 30.15 850 25.1 16.1 61 46 4.7 40.4 16.5 0.65
02:45 1021 30.15 850 25.1 16.1 60.9 47 4.8 40.6 16.41 0.646
02:46 1021 30.15 850 25.1 16 60.9 46 4.6 40.2 16.38 0.645
02:47 1021 30.15 850 25.1 16 60.9 46 4.6 40.2 16.43 0.647
02:48 1021 30.15 850 25.1 16 60.9 46 4.6 40.2 16.43 0.647
02:49 1021 30.15 850 25.1 16 60.9 46 4.6 40.3 16.39 0.645
02:50 1021 30.15 850 25.1 16 60.8 47 4.7 40.5 16.37 0.644
02:51 1021 30.15 850 25.1 16 60.8 47 4.7 40.4 16.39 0.645
02:52 1021 30.15 850 25.1 16 60.7 47 4.8 40.6 16.33 0.643
02:53 1021 30.15 850 25.1 15.9 60.7 47 4.6 40.3 16.33 0.643
02:54 1021 30.15 850 25.1 15.9 60.6 47 4.6 40.3 16.33 0.643
02:55 1021 30.15 850 25.1 15.9 60.7 47 4.6 40.3 16.31 0.642
02:56 1021 30.15 850 25.1 15.9 60.6 47 4.6 40.4 16.29 0.641
02:57 1021 30.15 850 25.1 15.9 60.6 47 4.6 40.3 16.28 0.641
02:58 1021 30.15 850 25.1 15.9 60.6 47 4.6 40.4 16.3 0.642
02:59 1021 30.15 850 25.1 15.9 60.6 47 4.6 40.3 16.28 0.641
03:00 1021 30.15 850 25.1 15.9 60.6 47 4.7 40.5 16.23 0.639
03:01 1021 30.15 850 25.1 15.8 60.5 47 4.7 40.5 16.17 0.637
03:02 1021 30.15 850 25.1 15.8 60.5 47 4.7 40.4 16.18 0.637
03:03 1021 30.15 850 25.1 15.9 60.5 47 4.6 40.3 16.26 0.64
03:04 1021 30.15 850 25.1 15.8 60.5 47 4.7 40.4 16.21 0.638
03:05 1021 30.15 850 25.1 15.8 60.5 47 4.6 40.3 16.18 0.637
03:06 1021 30.15 850 25.1 15.8 60.5 47 4.5 40.2 16.21 0.638
03:07 1021 30.15 850 25.1 15.9 60.6 47 4.6 40.3 16.22 0.639
03:08 1021 30.15 850 25.1 15.8 60.5 47 4.6 40.3 16.21 0.638
03:09 1021 30.15 850 25.1 15.8 60.5 48 4.8 40.6 16.18 0.637
03:10 1021 30.15 850 25.1 15.7 60.3 48 4.7 40.5 16.1 0.634
03:11 1021 30.15 850 25.1 15.7 60.3 47 4.7 40.4 16.12 0.635
03:12 1021 30.15 850 25.1 15.8 60.4 47 4.6 40.3 16.15 0.636
03:13 1021 30.15 850 25.1 15.8 60.5 47 4.6 40.3 16.15 0.636
03:14 1021 30.15 850 25.1 15.8 60.4 47 4.6 40.2 16.16 0.636
03:15 1021 30.15 850 25.1 15.8 60.5 47 4.6 40.3 16.19 0.637
03:16 1021 30.15 850 25.1 15.8 60.4 47 4.6 40.3 16.17 0.637
03:17 1021 30.15 850 25.1 15.8 60.4 47 4.7 40.4 16.1 0.634
03:18 1021 30.15 850 25.1 15.8 60.4 48 4.8 40.6 16.08 0.633
03:19 1021 30.15 850 25.1 15.7 60.3 47 4.5 40.2 16.08 0.633
03:20 1021 30.15 850 25.1 15.7 60.3 47 4.6 40.2 16.11 0.634
03:21 1021 30.15 850 25.1 15.8 60.4 47 4.6 40.3 16.15 0.636
03:22 1021 30.15 850 25.1 15.8 60.4 47 4.6 40.3 16.08 0.633
03:23 1021 30.15 850 25.1 15.7 60.3 47 4.6 40.3 16.09 0.633
03:24 1021 30.15 850 25.1 15.7 60.3 47 4.6 40.3 16.1 0.634
03:25 1021 30.15 850 25.1 15.7 60.2 47 4.5 40.1 16.1 0.634
03:26 1021 30.15 850 25.1 15.7 60.3 47 4.6 40.3 16.08 0.633
03:27 1021 30.15 850 25.1 15.7 60.3 47 4.6 40.3 16.09 0.633
03:28 1021 30.15 850 25.1 15.7 60.2 47 4.6 40.2 16.08 0.633
03:29 1021 30.15 850 25.1 15.7 60.2 47 4.5 40.1 16.08 0.633
03:30 1021 30.15 850 25.1 15.7 60.3 47 4.6 40.3 16.1 0.634
03:31 1021 30.15 850 25.1 15.7 60.3 47 4.6 40.4 16.07 0.633
03:32 1021 30.15 850 25.1 15.7 60.2 47 4.6 40.2 16.05 0.632
03:33 1021 30.15 850 25.1 15.7 60.2 47 4.5 40.2 16 0.63
03:34 1021 30.15 850 25.1 15.6 60.1 48 4.7 40.4 16 0.63
03:35 1021 30.15 850 25.1 15.6 60.1 48 4.6 40.2 15.93 0.627
03:36 1021 30.15 850 25.1 15.6 60 48 4.6 40.2 15.92 0.627
03:37 1021 30.15 850 25.1 15.5 59.9 47 4.5 40.1 15.9 0.626
03:38 1021 30.15 850 25.1 15.5 60 48 4.6 40.3 15.9 0.626
03:39 1021 30.15 850 25.1 15.5 60 48 4.7 40.4 15.86 0.624
03:40 1021 30.15 850 25.1 15.5 59.9 48 4.7 40.4 15.85 0.624
03:41 1021 30.15 850 25.1 15.4 59.7 48 4.6 40.3 15.81 0.622
03:42 1021 30.15 850 25.1 15.5 59.9 48 4.5 40.2 15.82 0.623
03:43 1021 30.15 850 25.1 15.5 59.9 48 4.5 40.1 15.88 0.625
03:44 1021 30.15 850 25.1 15.5 59.9 47 4.5 40.1 15.89 0.626
03:45 1021 30.15 850 25.1 15.5 59.9 48 4.7 40.4 15.88 0.625
03:46 1021 30.15 850 25.1 15.5 59.8 48 4.6 40.3 15.85 0.624
03:47 1021 30.15 850 25.1 15.5 59.9 48 4.6 40.2 15.86 0.624
03:48 1021 30.15 850 25.1 15.5 59.8 48 4.6 40.3 15.82 0.623
03:49 1021 30.15 850 25.1 15.4 59.8 48 4.6 40.2 15.82 0.623
03:50 1021 30.15 850 25.1 15.4 59.8 48 4.5 40.1 15.79 0.622
03:51 1021 30.15 850 25.1 15.5 59.8 47 4.4 40 15.81 0.622
03:52 1021 30.15 850 25.1 15.5 59.8 48 4.5 40.1 15.82 0.623
03:53 1021 30.15 850 25.1 15.5 59.8 47 4.4 39.9 15.83 0.623
03:54 1021 30.15 850 25.1 15.5 59.8 47 4.4 40 15.84 0.624
03:55 1021 30.15 850 25.1 15.4 59.7 48 4.6 40.2 15.79 0.622
03:56 1021 30.15 850 25.1 15.4 59.6 48 4.6 40.2 15.74 0.62
03:57 1021 30.15 850 25.1 15.3 59.6 48 4.5 40.2 15.67 0.617
03:58 1021 30.15 850 25.1 15.3 59.5 48 4.4 39.9 15.64 0.616
03:59 1021 30.15 850 25.1 15.3 59.6 48 4.4 40 15.73 0.619
04:00 1021 30.15 850 25.1 15.4 59.6 48 4.5 40.2 15.75 0.62
04:01 1021 30.15 850 25.1 15.3 59.6 48 4.5 40.2 15.71 0.619
04:02 1021 30.15 850 25.1 15.3 59.5 48 4.5 40.2 15.65 0.616
04:03 1021 30.15 850 25.1 15.2 59.4 48 4.5 40.1 15.59 0.614
04:04 1021 30.15 850 25.1 15.3 59.5 49 4.6 40.4 15.59 0.614
04:05 1021 30.15 850 25.1 15.2 59.3 49 4.6 40.3 15.51 0.611
04:06 1021 30.15 850 25.1 15.1 59.2 49 4.5 40.1 15.45 0.608
04:07 1021 30.15 850 25.1 15.1 59.2 49 4.5 40.1 15.49 0.61
04:08 1021 30.15 850 25.1 15.1 59.2 49 4.6 40.2 15.49 0.61
04:09 1021 30.15 850 25.1 15.1 59.3 49 4.5 40.1 15.53 0.611
04:10 1021 30.15 850 25.1 15.2 59.3 49 4.6 40.2 15.52 0.611
04:11 1021 30.15 850 25.1 15.1 59.2 49 4.5 40.1 15.5 0.61
04:12 1021 30.15 850 25.1 15.1 59.2 49 4.7 40.4 15.47 0.609
04:13 1021 30.15 850 25.1 15.1 59.1 49 4.6 40.3 15.44 0.608
04:14 1021 30.15 850 25.1 15 59.1 49 4.6 40.3 15.4 0.606
04:15 1021 30.15 850 25.1 15 59 49 4.6 40.2 15.37 0.605
04:16 1021 30.15 850 25.1 15 59 49 4.6 40.2 15.39 0.606
04:17 1021 30.15 850 25.1 15 59 49 4.6 40.2 15.4 0.606
04:18 1021 30.15 850 25.1 15 59.1 49 4.5 40.1 15.41 0.607
04:19 1021 30.15 850 25.1 15 59 50 4.7 40.4 15.38 0.606
04:20 1021 30.15 850 25.1 14.9 58.8 50 4.8 40.6 15.29 0.602
04:21 1021 30.15 850 25.1 14.9 58.7 50 4.6 40.3 15.24 0.6
04:22 1021 30.15 850 25.1 14.9 58.8 50 4.7 40.5 15.24 0.6
04:23 1021 30.15 850 25.1 14.8 58.7 50 4.6 40.2 15.2 0.598
04:24 1021 30.15 850 25.1 14.9 58.7 50 4.6 40.3 15.2 0.598
04:25 1021 30.15 850 25.1 14.9 58.7 49 4.4 40 15.28 0.602
04:26 1021 30.15 851 25.13 14.9 58.8 50 4.6 40.2 15.29 0.602
04:27 1021 30.15 851 25.13 14.9 58.8 50 4.6 40.3 15.27 0.601
04:28 1021 30.15 851 25.13 14.9 58.8 49 4.4 40 15.29 0.602
04:29 1021 30.15 851 25.13 14.9 58.9 50 4.7 40.5 15.24 0.6
04:30 1021 30.15 851 25.13 14.8 58.6 50 4.7 40.4 15.17 0.597
04:31 1021 30.15 851 25.13 14.8 58.6 50 4.5 40.1 15.14 0.596
04:32 1021 30.15 851 25.13 14.9 58.7 49 4.4 40 15.2 0.598
04:33 1021 30.15 851 25.13 14.9 58.8 50 4.5 40.1 15.27 0.601
04:34 1021 30.15 851 25.13 14.9 58.8 49 4.4 40 15.27 0.601
04:35 1021 30.15 851 25.13 14.9 58.9 50 4.6 40.2 15.26 0.601
04:36 1021 30.15 851 25.13 14.9 58.8 51 4.8 40.7 15.22 0.599
04:37 1021 30.15 851 25.13 14.8 58.7 50 4.7 40.5 15.14 0.596
04:38 1021 30.15 851 25.13 14.8 58.6 50 4.6 40.3 15.14 0.596
04:39 1021 30.15 851 25.13 14.7 58.5 50 4.6 40.2 15.12 0.595
04:40 1022 30.18 851 25.13 14.8 58.6 51 4.7 40.4 15.1 0.594
04:41 1022 30.18 851 25.13 14.7 58.5 50 4.6 40.3 15.1 0.594
04:42 1022 30.18 851 25.13 14.8 58.6 50 4.5 40.1 15.1 0.594
04:43 1022 30.18 851 25.13 14.8 58.6 50 4.5 40 15.18 0.598
04:44 1022 30.18 851 25.13 14.8 58.7 50 4.6 40.3 15.18 0.598
04:45 1022 30.18 851 25.13 14.7 58.5 50 4.6 40.2 15.07 0.593
04:46 1022 30.18 851 25.13 14.7 58.4 51 4.6 40.4 15.02 0.591
04:47 1022 30.18 851 25.13 14.6 58.3 51 4.6 40.4 14.94 0.588
04:48 1022 30.18 851 25.13 14.5 58.2 51 4.6 40.3 14.9 0.587
04:49 1022 30.18 851 25.13 14.5 58.1 51 4.7 40.4 14.85 0.585
04:50 1022 30.18 851 25.13 14.5 58.1 50 4.3 39.8 14.88 0.586
04:51 1022 30.18 851 25.13 14.6 58.2 50 4.4 39.9 14.97 0.589
04:52 1022 30.18 851 25.13 14.7 58.4 50 4.5 40 15.04 0.592
04:53 1022 30.18 851 25.13 14.7 58.4 50 4.5 40.1 15.05 0.593
04:54 1022 30.18 851 25.13 14.6 58.3 50 4.3 39.8 15.05 0.593
04:55 1022 30.18 851 25.13 14.7 58.4 50 4.5 40.2 15.05 0.593
04:56 1022 30.18 851 25.13 14.7 58.4 50 4.5 40.2 14.99 0.59
04:57 1022 30.18 851 25.13 14.6 58.3 50 4.4 39.9 14.95 0.589
04:58 1022 30.18 851 25.13 14.7 58.4 50 4.5 40.1 15 0.591
04:59 1022 30.18 851 25.13 14.7 58.4 50 4.5 40.1 14.99 0.59
05:00 1022 30.18 851 25.13 14.6 58.4 50 4.4 39.8 15.02 0.591
05:01 1022 30.18 851 25.13 14.7 58.5 49 4.3 39.7 15.1 0.594
05:02 1022 30.18 851 25.13 14.7 58.5 50 4.4 39.9 15.09 0.594
05:03 1022 30.18 851 25.13 14.7 58.4 50 4.4 40 15.06 0.593
05:04 1022 30.18 851 25.13 14.6 58.4 50 4.4 39.8 14.98 0.59
05:05 1022 30.18 851 25.13 14.6 58.3 50 4.4 40 14.95 0.589
05:06 1022 30.18 851 25.13 14.5 58.2 50 4.4 39.9 14.9 0.587
05:07 1022 30.18 851 25.13 14.6 58.2 51 4.5 40.1 14.9 0.587
05:08 1021 30.15 851 25.13 14.5 58.1 51 4.4 40 14.89 0.586
05:09 1021 30.15 851 25.13 14.5 58.1 51 4.5 40 14.85 0.585
05:10 1021 30.15 851 25.13 14.5 58 51 4.5 40.1 14.85 0.585
05:11 1021 30.15 851 25.13 14.5 58 51 4.4 40 14.84 0.584
05:12 1021 30.15 851 25.13 14.4 58 51 4.4 39.9 14.77 0.581
05:13 1021 30.15 851 25.13 14.4 57.9 51 4.5 40 14.76 0.581
05:14 1021 30.15 851 25.13 14.4 57.8 51 4.5 40.1 14.71 0.579
05:15 1021 30.15 851 25.13 14.3 57.7 51 4.4 39.9 14.63 0.576
05:16 1021 30.15 851 25.13 14.3 57.7 51 4.3 39.7 14.63 0.576
05:17 1021 30.15 851 25.13 14.4 57.9 51 4.4 39.8 14.73 0.58
05:18 1021 30.15 851 25.13 14.4 57.9 51 4.4 39.9 14.77 0.581
05:19 1021 30.15 851 25.13 14.4 57.9 50 4.3 39.8 14.77 0.581
05:20 1021 30.15 851 25.13 14.4 57.9 50 4.3 39.7 14.74 0.58
05:21 1021 30.15 851 25.13 14.4 58 51 4.4 39.9 14.8 0.583
05:22 1021 30.15 851 25.13 14.4 57.9 50 4.2 39.6 14.79 0.582
05:23 1021 30.15 851 25.13 14.5 58.1 50 4.2 39.6 14.85 0.585
05:24 1022 30.18 851 25.13 14.5 58.2 50 4.3 39.7 14.92 0.587
05:25 1022 30.18 851 25.13 14.5 58.2 50 4.4 39.9 14.86 0.585
05:26 1022 30.18 851 25.13 14.5 58.1 50 4.3 39.7 14.82 0.583
05:27 1022 30.18 851 25.13 14.5 58 50 4.3 39.8 14.81 0.583
05:28 1022 30.18 851 25.13 14.4 57.9 51 4.4 39.9 14.77 0.581
05:29 1022 30.18 851 25.13 14.4 57.9 50 4.2 39.5 14.76 0.581
05:30 1022 30.18 851 25.13 14.4 58 50 4.3 39.7 14.8 0.583
05:31 1022 30.18 851 25.13 14.4 58 51 4.4 40 14.78 0.582
05:32 1022 30.18 851 25.13 14.3 57.8 51 4.4 39.9 14.68 0.578
05:33 1022 30.18 851 25.13 14.3 57.7 51 4.2 39.6 14.63 0.576
05:34 1022 30.18 851 25.13 14.3 57.7 50 4.2 39.6 14.67 0.578
05:35 1022 30.18 851 25.13 14.3 57.8 51 4.3 39.7 14.72 0.58
05:36 1022 30.18 851 25.13 14.3 57.8 51 4.3 39.8 14.67 0.578
05:37 1022 30.18 851 25.13 14.2 57.6 51 4.3 39.8 14.64 0.576
05:38 1022 30.18 851 25.13 14.2 57.6 51 4.2 39.6 14.66 0.577
05:39 1022 30.18 851 25.13 14.3 57.7 51 4.3 39.8 14.67 0.578
05:40 1022 30.18 851 25.13 14.3 57.7 51 4.2 39.6 14.65 0.577
05:41 1022 30.18 851 25.13 14.3 57.7 51 4.4 39.9 14.64 0.576
05:42 1022 30.18 851 25.13 14.3 57.7 51 4.3 39.7 14.64 0.576
05:43 1022 30.18 851 25.13 14.3 57.7 51 4.3 39.7 14.64 0.576
05:44 1022 30.18 851 25.13 14.3 57.7 51 4.4 39.8 14.65 0.577
05:45 1022 30.18 851 25.13 14.3 57.7 51 4.2 39.6 14.61 0.575
05:46 1022 30.18 851 25.13 14.3 57.7 51 4.2 39.6 14.67 0.578
05:47 1022 30.18 851 25.13 14.3 57.7 51 4.3 39.8 14.64 0.576
05:48 1022 30.18 851 25.13 14.3 57.7 50 4.2 39.6 14.63 0.576
05:49 1022 30.18 851 25.13 14.3 57.7 51 4.3 39.7 14.67 0.578
05:50 1022 30.18 851 25.13 14.3 57.7 50 4.2 39.5 14.64 0.576
05:51 1022 30.18 851 25.13 14.3 57.8 51 4.3 39.7 14.67 0.578
05:52 1022 30.18 851 25.13 14.3 57.7 51 4.3 39.7 14.62 0.576
05:53 1022 30.18 851 25.13 14.2 57.6 51 4.3 39.8 14.61 0.575
05:54 1022 30.18 851 25.13 14.2 57.6 52 4.5 40 14.55 0.573
05:55 1022 30.18 851 25.13 14.1 57.5 52 4.4 39.9 14.49 0.57
05:56 1022 30.18 851 25.13 14.2 57.5 51 4.3 39.7 14.49 0.57
05:57 1022 30.18 851 25.13 14.2 57.5 51 4.3 39.8 14.54 0.572
05:58 1022 30.18 851 25.13 14.2 57.5 51 4.3 39.7 14.58 0.574
05:59 1022 30.18 851 25.13 14.2 57.5 52 4.4 40 14.52 0.572
06:00 1022 30.18 851 25.13 14.1 57.4 51 4.3 39.7 14.48 0.57
06:01 1022 30.18 851 25.13 14.1 57.4 51 4.2 39.6 14.47 0.57
06:02 1022 30.18 851 25.13 14.2 57.5 51 4.3 39.7 14.56 0.573
06:03 1022 30.18 851 25.13 14.1 57.4 51 4.3 39.8 14.49 0.57
06:04 1022 30.18 851 25.13 14.1 57.3 52 4.5 40 14.43 0.568
06:05 1022 30.18 851 25.13 14 57.2 52 4.3 39.7 14.32 0.564
06:06 1022 30.18 851 25.13 14 57.2 52 4.3 39.8 14.38 0.566
06:07 1022 30.18 851 25.13 14 57.2 51 4.2 39.6 14.38 0.566
06:08 1022 30.18 851 25.13 14 57.3 52 4.3 39.7 14.4 0.567
06:09 1022 30.18 851 25.13 14.1 57.3 52 4.4 39.9 14.41 0.567
06:10 1022 30.18 851 25.13 14 57.2 52 4.4 40 14.36 0.565
06:11 1022 30.18 851 25.13 13.9 57.1 52 4.4 39.9 14.32 0.564
06:12 1022 30.18 851 25.13 13.9 57 52 4.3 39.8 14.27 0.562
06:13 1022 30.18 851 25.13 13.9 57 52 4.2 39.6 14.29 0.563
06:14 1022 30.18 851 25.13 14 57.1 52 4.3 39.7 14.33 0.564
06:15 1022 30.18 851 25.13 14 57.1 52 4.2 39.6 14.36 0.565
06:16 1022 30.18 851 25.13 14 57.2 51 4.2 39.6 14.35 0.565
06:17 1022 30.18 851 25.13 14.1 57.3 52 4.4 39.9 14.39 0.567
06:18 1022 30.18 851 25.13 14 57.1 52 4.3 39.8 14.31 0.563
06:19 1022 30.18 851 25.13 13.9 57 52 4.3 39.7 14.24 0.561
06:20 1022 30.18 851 25.13 13.9 57 52 4.2 39.6 14.22 0.56
06:21 1022 30.18 851 25.13 13.9 56.9 52 4.3 39.8 14.21 0.559
06:22 1022 30.18 851 25.13 13.9 57 52 4.2 39.6 14.25 0.561
06:23 1022 30.18 851 25.13 13.9 57 52 4.2 39.6 14.3 0.563
06:24 1022 30.18 851 25.13 13.9 57 52 4.3 39.7 14.24 0.561
06:25 1022 30.18 851 25.13 13.9 56.9 52 4.4 39.9 14.22 0.56
06:26 1022 30.18 851 25.13 13.8 56.9 53 4.5 40 14.14 0.557
06:27 1022 30.18 851 25.13 13.7 56.7 53 4.4 39.8 14.12 0.556
06:28 1022 30.18 851 25.13 13.7 56.6 53 4.4 40 14.01 0.552
06:29 1022 30.18 851 25.13 13.6 56.4 54 4.4 39.9 13.93 0.548
06:30 1022 30.18 851 25.13 13.5 56.3 54 4.5 40 13.86 0.546
06:31 1022 30.18 851 25.13 13.5 56.2 54 4.5 40 13.79 0.543
06:32 1022 30.18 851 25.13 13.4 56.1 54 4.5 40.1 13.75 0.541
06:33 1022 30.18 851 25.13 13.4 56.1 54 4.3 39.8 13.74 0.541
06:34 1022 30.18 851 25.13 13.4 56.2 54 4.4 40 13.77 0.542
06:35 1022 30.18 851 25.13 13.5 56.2 54 4.4 39.9 13.85 0.545
06:36 1022 30.18 851 25.13 13.5 56.3 54 4.4 40 13.85 0.545
06:37 1022 30.18 851 25.13 13.5 56.2 54 4.4 40 13.83 0.544
06:38 1022 30.18 851 25.13 13.5 56.2 54 4.3 39.8 13.84 0.545
06:39 1022 30.18 851 25.13 13.5 56.3 54 4.5 40.1 13.82 0.544
06:40 1022 30.18 851 25.13 13.5 56.2 54 4.4 39.9 13.81 0.544
06:41 1022 30.18 851 25.13 13.5 56.3 54 4.5 40.1 13.91 0.548
06:42 1022 30.18 851 25.13 13.5 56.3 54 4.6 40.2 13.87 0.546
06:43 1022 30.18 851 25.13 13.5 56.3 54 4.5 40.2 13.88 0.546
06:44 1022 30.18 851 25.13 13.5 56.3 55 4.6 40.3 13.84 0.545
06:45 1022 30.18 851 25.13 13.5 56.2 54 4.5 40.1 13.82 0.544
06:46 1022 30.18 851 25.13 13.4 56.1 54 4.4 40 13.79 0.543
06:47 1022 30.18 851 25.13 13.4 56.2 54 4.4 40 13.8 0.543
06:48 1022 30.18 851 25.13 13.4 56.1 55 4.5 40.1 13.82 0.544
06:49 1022 30.18 851 25.13 13.5 56.2 55 4.6 40.4 13.8 0.543
06:50 1022 30.18 851 25.13 13.4 56.2 55 4.7 40.4 13.81 0.544
06:51 1022 30.18 851 25.13 13.4 56.1 56 4.7 40.5 13.74 0.541
06:52 1022 30.18 851 25.13 13.3 56 55 4.6 40.3 13.68 0.539
06:53 1022 30.18 851 25.13 13.4 56.1 55 4.6 40.3 13.74 0.541
06:54 1022 30.18 851 25.13 13.4 56.1 56 4.9 40.9 13.74 0.541
06:55 1022 30.18 851 25.13 13.3 56 55 4.7 40.4 13.68 0.539
06:56 1022 30.18 851 25.13 13.4 56.1 55 4.7 40.5 13.74 0.541
06:57 1022 30.18 851 25.13 13.4 56.1 56 4.8 40.7 13.75 0.541
06:58 1022 30.18 851 25.13 13.3 56 57 5 40.9 13.71 0.54
06:59 1022 30.18 851 25.13 13.3 55.9 58 5.2 41.4 13.63 0.537
07:00 1022 30.18 851 25.13 13.1 55.6 59 5.3 41.5 13.49 0.531
07:01 1022 30.18 851 25.13 12.9 55.2 59 5.3 41.5 13.36 0.526
07:02 1022 30.18 851 25.13 12.8 55 61 5.5 41.9 13.26 0.522
07:03 1022 30.18 851 25.13 12.6 54.8 62 5.6 42 13.09 0.515
07:04 1022 30.18 851 25.13 12.4 54.3 63 5.6 42.1 12.87 0.507
07:05 1022 30.18 851 25.13 12.1 53.8 65 5.8 42.5 12.61 0.496
07:06 1022 30.18 851 25.13 11.8 53.3 66 5.7 42.3 12.32 0.485
07:07 1022 30.18 851 25.13 11.6 53 67 5.7 42.3 12.12 0.477
07:08 1022 30.18 851 25.13 11.5 52.8 67 5.8 42.4 12.03 0.474
07:09 1022 30.18 851 25.13 11.4 52.6 67 5.7 42.2 11.89 0.468
07:10 1022 30.18 851 25.13 11.4 52.5 68 5.7 42.3 11.83 0.466
07:11 1022 30.18 851 25.13 11.3 52.3 68 5.6 42.2 11.75 0.463
07:12 1022 30.18 851 25.13 11.3 52.3 70 5.9 42.7 11.7 0.461
07:13 1022 30.18 851 25.13 11.1 52.1 70 5.8 42.5 11.62 0.457
07:14 1022 30.18 851 25.13 11.1 52 69 5.7 42.2 11.55 0.455
07:15 1022 30.18 851 25.13 11.2 52.1 68 5.5 41.8 11.55 0.455
07:16 1022 30.18 851 25.13 11.2 52.2 68 5.6 42.1 11.63 0.458
07:17 1022 30.18 851 25.13 11.3 52.4 67 5.4 41.6 11.68 0.46
07:18 1022 30.18 851 25.13 11.4 52.5 67 5.6 42.1 11.75 0.463
07:19 1022 30.18 851 25.13 11.5 52.6 67 5.5 41.9 11.82 0.465
07:20 1022 30.18 851 25.13 11.5 52.8 66 5.4 41.7 11.86 0.467
07:21 1022 30.18 851 25.13 11.7 53.1 64 5.2 41.3 12.02 0.473
07:22 1022 30.18 851 25.13 11.9 53.4 65 5.5 41.9 12.22 0.481
07:23 1022 30.18 851 25.13 12 53.5 64 5.3 41.6 12.32 0.485
07:24 1022 30.18 851 25.13 12.2 53.9 62 5 41.1 12.53 0.493
07:25 1022 30.18 851 25.13 12.4 54.4 61 5.1 41.1 12.78 0.503
07:26 1022 30.18 851 25.13 12.7 54.9 58 4.8 40.7 13.13 0.517
07:27 1022 30.18 851 25.13 13.1 55.5 57 4.9 40.8 13.49 0.531
07:28 1022 30.18 851 25.13 13.3 56 57 5.1 41.2 13.75 0.541
07:29 1022 30.18 851 25.13 13.5 56.3 55 4.7 40.5 13.89 0.547
07:30 1022 30.18 851 25.13 13.7 56.6 55 5 41 14.11 0.556
07:31 1022 30.18 851 25.13 13.8 56.9 55 5 40.9 14.21 0.559
07:32 1022 30.18 851 25.13 14 57.2 54 5 41 14.4 0.567
07:33 1022 30.18 851 25.13 14.3 57.7 53 4.9 40.9 14.64 0.576
07:34 1022 30.18 851 25.13 14.4 58 54 5.2 41.4 14.81 0.583
07:35 1022 30.18 851 25.13 14.5 58.2 54 5.3 41.6 14.87 0.585
07:36 1022 30.18 851 25.13 14.6 58.3 54 5.5 41.9 14.98 0.59
07:37 1022 30.18 851 25.13 14.7 58.5 51 4.8 40.6 15.09 0.594
07:38 1022 30.18 851 25.13 14.9 58.9 50 4.7 40.4 15.34 0.604
07:39 1022 30.18 851 25.13 15.2 59.3 51 5.2 41.3 15.58 0.613
07:40 1022 30.18 851 25.13 15.4 59.7 50 5.2 41.3 15.76 0.62
07:41 1022 30.18 851 25.13 15.5 59.8 50 5.1 41.2 15.84 0.624
07:42 1022 30.18 851 25.13 15.6 60 51 5.6 42 15.94 0.628
07:43 1022 30.18 851 25.13 15.6 60.1 50 5.3 41.5 16.02 0.631
07:44 1022 30.18 851 25.13 15.7 60.3 51 5.8 42.4 16.09 0.633
07:45 1022 30.18 851 25.13 15.7 60.3 50 5.4 41.7 16.08 0.633
07:46 1022 30.18 851 25.13 15.8 60.4 49 5.3 41.5 16.1 0.634
07:47 1022 30.18 851 25.13 15.7 60.3 48 4.9 40.8 16.09 0.633
07:48 1022 30.18 851 25.13 15.8 60.4 51 5.7 42.2 16.08 0.633
07:49 1022 30.18 851 25.13 15.7 60.3 48 5 41 16.05 0.632
07:50 1022 30.18 851 25.13 15.7 60.3 49 5.2 41.3 16.07 0.633
07:51 1022 30.18 851 25.13 15.7 60.3 50 5.4 41.7 16.1 0.634
07:52 1022 30.18 851 25.13 15.8 60.4 49 5.1 41.1 16.09 0.633
07:53 1022 30.18 851 25.13 15.8 60.4 49 5.1 41.2 16.08 0.633
07:54 1022 30.18 851 25.13 15.7 60.3 49 5.1 41.1 16.05 0.632
07:55 1022 30.18 851 25.13 15.8 60.4 48 4.8 40.7 16.11 0.634
07:56 1022 30.18 851 25.13 15.8 60.4 49 5.3 41.5 16.11 0.634
07:57 1022 30.18 851 25.13 15.8 60.4 50 5.3 41.6 16.1 0.634
07:58 1022 30.18 851 25.13 15.8 60.4 49 5.2 41.3 16.1 0.634
07:59 1022 30.18 851 25.13 15.7 60.3 49 5.1 41.2 16.03 0.631
08:00 1022 30.18 851 25.13 15.6 60.1 50 5.5 41.8 15.96 0.628
08:01 1022 30.18 851 25.13 15.6 60.1 48 4.6 40.3 15.96 0.628
08:02 1022 30.18 851 25.13 15.6 60.1 48 4.9 40.8 15.95 0.628
08:03 1022 30.18 851 25.13 15.7 60.2 48 4.7 40.5 15.98 0.629
08:04 1022 30.18 851 25.13 15.7 60.2 48 4.8 40.7 15.99 0.63
08:05 1022 30.18 851 25.13 15.6 60.1 49 5.1 41.1 15.96 0.628
08:06 1022 30.18 851 25.13 15.6 60.1 48 4.9 40.7 15.93 0.627
08:07 1022 30.18 851 25.13 15.6 60 49 5 40.9 15.92 0.627
08:08 1022 30.18 851 25.13 15.6 60 49 5.1 41.2 15.95 0.628
08:09 1021 30.15 851 25.13 15.5 60 48 4.7 40.5 15.91 0.626
08:10 1022 30.18 851 25.13 15.5 60 49 5.1 41.1 15.94 0.628
08:11 1022 30.18 851 25.13 15.5 59.9 50 5.3 41.6 15.88 0.625
08:12 1021 30.15 851 25.13 15.5 59.9 50 5.2 41.4 15.84 0.624
08:13 1021 30.15 851 25.13 15.5 60 49 5 41 15.91 0.626
08:14 1021 30.15 851 25.13 15.6 60.1 48 4.9 40.8 16 0.63
08:15 1021 30.15 851 25.13 15.8 60.4 48 4.9 40.8 16.1 0.634
08:16 1021 30.15 851 25.13 15.8 60.5 48 5 41 16.2 0.638
08:17 1021 30.15 851 25.13 15.9 60.6 47 4.8 40.6 16.24 0.639
08:18 1021 30.15 851 25.13 15.8 60.5 48 4.9 40.8 16.18 0.637
08:19 1021 30.15 851 25.13 15.8 60.4 48 5 40.9 16.1 0.634
08:20 1021 30.15 851 25.13 15.7 60.2 48 4.9 40.8 16.02 0.631
08:21 1021 30.15 851 25.13 15.6 60.1 49 4.9 40.9 15.93 0.627
08:22 1021 30.15 850 25.1 15.6 60 47 4.5 40 15.92 0.627
08:23 1021 30.15 851 25.13 15.6 60.1 49 5.1 41.3 15.92 0.627
08:24 1021 30.15 850 25.1 15.6 60 48 4.8 40.6 15.88 0.625
08:25 1021 30.15 850 25.1 15.5 59.9 50 5.2 41.3 15.87 0.625
08:26 1021 30.15 850 25.1 15.5 59.8 50 5.2 41.4 15.82 0.623
08:27 1021 30.15 850 25.1 15.5 59.8 48 4.7 40.4 15.76 0.62
08:28 1021 30.15 850 25.1 15.5 59.8 50 5.2 41.4 15.83 0.623
08:29 1021 30.15 850 25.1 15.5 59.8 48 4.6 40.2 15.83 0.623
08:30 1021 30.15 850 25.1 15.5 59.8 48 4.7 40.4 15.81 0.622
08:31 1021 30.15 850 25.1 15.5 59.8 48 4.5 40.1 15.81 0.622
08:32 1021 30.15 850 25.1 15.5 59.9 48 4.8 40.6 15.86 0.624
08:33 1021 30.15 850 25.1 15.5 59.9 48 4.7 40.5 15.88 0.625
08:34 1021 30.15 850 25.1 15.6 60 48 4.6 40.3 15.91 0.626
08:35 1021 30.15 850 25.1 15.6 60.1 48 4.7 40.5 15.99 0.63
08:36 1021 30.15 850 25.1 15.7 60.2 47 4.5 40 16.04 0.631
08:37 1021 30.15 850 25.1 15.8 60.4 48 4.8 40.7 16.16 0.636
08:38 1021 30.15 850 25.1 15.9 60.6 47 4.8 40.6 16.25 0.64
08:39 1021 30.15 850 25.1 15.9 60.7 48 5 41 16.35 0.644
08:40 1021 30.15 850 25.1 16.1 60.9 47 4.9 40.8 16.39 0.645
08:41 1021 30.15 850 25.1 16.1 61 47 5 41 16.46 0.648
08:42 1021 30.15 850 25.1 16.2 61.1 45 4.4 40 16.53 0.651
08:43 1021 30.15 850 25.1 16.3 61.3 45 4.4 40 16.57 0.652
08:44 1021 30.15 850 25.1 16.2 61.2 46 4.7 40.5 16.62 0.654
08:45 1021 30.15 850 25.1 16.3 61.3 45 4.5 40 16.6 0.654
08:46 1021 30.15 850 25.1 16.3 61.3 46 4.7 40.5 16.58 0.653
08:47 1021 30.15 850 25.1 16.2 61.2 46 4.9 40.7 16.57 0.652
08:48 1021 30.15 850 25.1 16.2 61.2 47 5.1 41.2 16.53 0.651
08:49 1021 30.15 850 25.1 16.2 61.2 49 5.5 41.8 16.56 0.652
08:50 1021 30.15 850 25.1 16.3 61.3 45 4.5 40.1 16.68 0.657
08:51 1021 30.15 850 25.1 16.5 61.7 45 4.7 40.4 16.83 0.663
08:52 1021 30.15 850 25.1 16.6 62 47 5.3 41.5 17 0.669
08:53 1021 30.15 850 25.1 16.8 62.2 44 4.7 40.4 17.12 0.674
08:54 1021 30.15 850 25.1 16.9 62.4 45 5.1 41.2 17.23 0.678
08:55 1021 30.15 850 25.1 16.9 62.5 43 4.3 39.8 17.31 0.681
08:56 1021 30.15 850 25.1 16.9 62.5 44 4.6 40.2 17.27 0.68
08:57 1021 30.15 850 25.1 16.9 62.4 45 5.1 41.2 17.19 0.677
08:58 1021 30.15 850 25.1 16.8 62.3 44 4.8 40.6 17.19 0.677
08:59 1021 30.15 850 25.1 16.8 62.2 45 4.8 40.7 17.14 0.675
09:00 1021 30.15 850 25.1 16.7 62.1 44 4.6 40.2 17.06 0.672
09:01 1021 30.15 850 25.1 16.7 62.1 44 4.7 40.4 17.06 0.672
09:02 1021 30.15 850 25.1 16.7 62.1 44 4.4 40 17.13 0.674
09:03 1021 30.15 850 25.1 16.8 62.2 45 4.8 40.6 17.15 0.675
09:04 1021 30.15 850 25.1 16.8 62.3 44 4.6 40.3 17.15 0.675
09:05 1021 30.15 850 25.1 16.9 62.4 43 4.3 39.8 17.27 0.68
09:06 1021 30.15 850 25.1 16.9 62.5 44 4.7 40.4 17.24 0.679
09:07 1021 30.15 850 25.1 16.9 62.4 43 4.3 39.8 17.26 0.68
09:08 1021 30.15 850 25.1 16.9 62.5 43 4.5 40 17.28 0.68
09:09 1021 30.15 850 25.1 17 62.7 44 4.9 40.9 17.4 0.685
09:10 1021 30.15 850 25.1 17.1 62.8 43 4.4 40 17.47 0.688
09:11 1021 30.15 850 25.1 17.2 62.9 44 5 41 17.53 0.69
09:12 1021 30.15 850 25.1 17.3 63.1 44 4.9 40.8 17.68 0.696
09:13 1021 30.15 850 25.1 17.4 63.4 42 4.6 40.4 17.74 0.698
09:14 1021 30.15 850 25.1 17.4 63.4 42 4.6 40.3 17.81 0.701
09:15 1021 30.15 850 25.1 17.5 63.4 42 4.6 40.2 17.85 0.703
09:16 1021 30.15 850 25.1 17.5 63.5 43 4.8 40.7 17.84 0.702
09:17 1021 30.15 850 25.1 17.5 63.5 43 4.8 40.7 17.9 0.705
09:18 1021 30.15 850 25.1 17.6 63.6 43 5.1 41.1 17.92 0.706
09:19 1021 30.15 850 25.1 17.5 63.6 43 4.9 40.7 17.86 0.703
09:20 1021 30.15 850 25.1 17.5 63.4 43 4.8 40.7 17.83 0.702
09:21 1021 30.15 850 25.1 17.5 63.4 43 4.9 40.9 17.8 0.701
09:22 1021 30.15 850 25.1 17.5 63.4 42 4.6 40.2 17.8 0.701
09:23 1021 30.15 850 25.1 17.4 63.3 43 4.7 40.4 17.73 0.698
09:24 1021 30.15 850 25.1 17.4 63.3 43 4.9 40.9 17.73 0.698
09:25 1021 30.15 850 25.1 17.4 63.2 45 5.4 41.6 17.7 0.697
09:26 1021 30.15 850 25.1 17.3 63.2 42 4.5 40 17.69 0.696
09:27 1021 30.15 850 25.1 17.3 63.2 44 5.2 41.3 17.68 0.696
09:28 1021 30.15 850 25.1 17.3 63.2 44 5 41.1 17.68 0.696
09:29 1021 30.15 850 25.1 17.4 63.3 42 4.4 40 17.75 0.699
09:30 1021 30.15 850 25.1 17.5 63.4 43 5 41 17.79 0.7
09:31 1021 30.15 850 25.1 17.4 63.4 48 6.3 43.3 17.79 0.7
09:32 1021 30.15 850 25.1 17.3 63.1 50 6.9 44.4 17.54 0.691
09:33 1021 30.15 850 25.1 17.1 62.8 47 5.9 42.6 17.36 0.683
09:34 1021 30.15 850 25.1 17 62.6 49 6.2 43.2 17.24 0.679
09:35 1021 30.15 850 25.1 17 62.5 49 6.2 43.2 17.21 0.678
09:36 1021 30.15 850 25.1 17 62.6 53 7.5 45.5 17.28 0.68
09:37 1021 30.15 850 25.1 17.1 62.7 49 6.5 43.8 17.33 0.682
09:38 1021 30.15 850 25.1 17.1 62.8 51 7.1 44.7 17.49 0.689
09:39 1021 30.15 850 25.1 17.3 63.1 50 6.8 44.2 17.57 0.692
09:40 1021 30.15 850 25.1 17.3 63.2 49 6.6 43.9 17.64 0.694
09:41 1021 30.15 850 25.1 17.5 63.4 46 6 42.8 17.77 0.7
09:42 1021 30.15 850 25.1 17.6 63.6 51 7.4 45.3 17.81 0.701
09:43 1021 30.15 850 25.1 17.6 63.7 49 6.8 44.2 17.89 0.704
09:44 1021 30.15 850 25.1 17.6 63.6 48 6.5 43.7 17.82 0.702
09:45 1021 30.15 850 25.1 17.4 63.3 49 6.6 43.9 17.67 0.696
09:46 1021 30.15 850 25.1 17.2 62.9 50 6.8 44.2 17.45 0.687
09:47 1021 30.15 850 25.1 16.9 62.5 49 6.4 43.5 17.18 0.676
09:48 1021 30.15 850 25.1 16.9 62.3 50 6.5 43.7 17.1 0.673
09:49 1021 30.15 850 25.1 16.8 62.2 50 6.4 43.6 17.06 0.672
09:50 1021 30.15 850 25.1 16.8 62.3 51 6.8 44.3 17.11 0.674
09:51 1021 30.15 850 25.1 17 62.5 54 7.6 45.7 17.25 0.679
09:52 1021 30.15 850 25.1 17.2 63 48 6.1 43 17.49 0.689
09:53 1021 30.15 850 25.1 17.4 63.3 46 5.8 42.4 17.61 0.693
09:54 1021 30.15 850 25.1 17.6 63.6 45 5.6 42.2 17.83 0.702
09:55 1021 30.15 850 25.1 17.6 63.8 47 6.4 43.5 17.88 0.704
09:56 1021 30.15 850 25.1 17.7 63.8 47 6.4 43.5 17.87 0.704
09:57 1021 30.15 850 25.1 17.6 63.7 51 7.4 45.4 17.85 0.703
09:58 1021 30.15 850 25.1 17.6 63.6 49 6.9 44.4 17.78 0.7
09:59 1021 30.15 850 25.1 17.5 63.4 49 6.7 44 17.75 0.699
10:00 1021 30.15 850 25.1 17.4 63.3 48 6.4 43.5 17.68 0.696
10:01 1021 30.15 850 25.1 17.4 63.3 54 8.1 46.7 17.65 0.695
10:02 1021 30.15 850 25.1 17.5 63.5 51 7.4 45.3 17.78 0.7
10:03 1021 30.15 850 25.1 17.6 63.6 46 5.9 42.7 17.83 0.702
10:04 1021 30.15 850 25.1 17.5 63.5 50 7.1 44.7 17.73 0.698
10:05 1021 30.15 850 25.1 17.5 63.4 46 5.9 42.6 17.68 0.696
10:06 1021 30.15 850 25.1 17.5 63.5 46 5.8 42.5 17.7 0.697
10:07 1021 30.15 850 25.1 17.5 63.5 49 6.9 44.3 17.79 0.7
10:08 1021 30.15 851 25.13 17.6 63.7 50 7.2 45 17.82 0.702
10:09 1021 30.15 851 25.13 17.6 63.7 50 7.2 44.9 17.87 0.704
10:10 1021 30.15 851 25.13 17.7 63.9 47 6.5 43.7 17.99 0.708
10:11 1021 30.15 850 25.1 17.8 64.1 48 6.9 44.4 18.08 0.712
10:12 1021 30.15 850 25.1 17.8 64.1 49 7 44.5 18.08 0.712
10:13 1021 30.15 850 25.1 17.8 64 48 6.6 43.9 18.02 0.709
10:14 1021 30.15 850 25.1 17.7 63.8 47 6.4 43.5 17.88 0.704
10:15 1021 30.15 850 25.1 17.6 63.6 48 6.5 43.7 17.79 0.7
10:16 1021 30.15 851 25.13 17.5 63.6 50 7.2 45 17.8 0.701
10:17 1021 30.15 850 25.1 17.6 63.7 49 6.8 44.3 17.92 0.706
10:18 1021 30.15 850 25.1 17.8 64 53 8.3 46.9 18.09 0.712
10:19 1021 30.15 850 25.1 18 64.3 50 7.6 45.7 18.19 0.716
10:20 1021 30.15 850 25.1 18 64.3 48 7 44.5 18.24 0.718
10:21 1021 30.15 850 25.1 18 64.4 53 8.5 47.3 18.3 0.72
10:22 1021 30.15 850 25.1 18.2 64.7 50 7.7 45.9 18.44 0.726
10:23 1021 30.15 851 25.13 18.3 64.9 47 7 44.7 18.55 0.73
10:24 1021 30.15 851 25.13 18.3 64.9 48 7.2 45 18.47 0.727
10:25 1021 30.15 851 25.13 18.2 64.8 46 6.7 44 18.39 0.724
10:26 1021 30.15 851 25.13 18.2 64.7 45 6.3 43.3 18.38 0.724
10:27 1021 30.15 851 25.13 18.1 64.5 46 6.3 43.3 18.3 0.72
10:28 1021 30.15 851 25.13 18 64.3 49 7.3 45.2 18.13 0.714
10:29 1021 30.15 851 25.13 17.8 64.1 50 7.3 45.1 18.06 0.711
10:30 1021 30.15 851 25.13 17.8 64 49 6.9 44.5 18.07 0.711
10:31 1021 30.15 851 25.13 17.7 63.9 48 6.6 43.9 17.95 0.707
10:32 1021 30.15 851 25.13 17.6 63.6 50 7.2 45 17.81 0.701
10:33 1021 30.15 851 25.13 17.5 63.5 48 6.4 43.6 17.77 0.7
10:34 1021 30.15 851 25.13 17.5 63.5 52 7.6 45.7 17.78 0.7
10:35 1021 30.15 851 25.13 17.5 63.5 47 6.2 43.1 17.81 0.701
10:36 1021 30.15 851 25.13 17.5 63.5 49 6.9 44.4 17.73 0.698
10:37 1021 30.15 851 25.13 17.4 63.3 52 7.5 45.4 17.66 0.695
10:38 1021 30.15 851 25.13 17.3 63.2 50 6.8 44.2 17.65 0.695
10:39 1021 30.15 850 25.1 17.3 63.2 49 6.7 44 17.64 0.694
10:40 1021 30.15 851 25.13 17.3 63.1 53 7.6 45.7 17.6 0.693
10:41 1021 30.15 851 25.13 17.3 63.2 50 7 44.5 17.63 0.694
10:42 1021 30.15 851 25.13 17.4 63.3 48 6.4 43.6 17.66 0.695
10:43 1021 30.15 851 25.13 17.5 63.5 50 7 44.5 17.76 0.699
10:44 1021 30.15 850 25.1 17.6 63.6 48 6.4 43.5 17.83 0.702
10:45 1021 30.15 850 25.1 17.6 63.7 50 7.3 45.1 17.88 0.704
10:46 1021 30.15 850 25.1 17.6 63.7 49 6.9 44.3 17.94 0.706
10:47 1021 30.15 850 25.1 17.7 63.9 50 7.4 45.4 18.01 0.709
10:48 1021 30.15 850 25.1 17.8 64 53 8.1 46.6 18.1 0.713
10:49 1021 30.15 850 25.1 17.9 64.2 53 8.2 46.8 18.21 0.717
10:50 1021 30.15 850 25.1 18 64.4 53 8.3 46.9 18.28 0.72
10:51 1021 30.15 850 25.1 18.1 64.5 50 7.6 45.7 18.35 0.722
10:52 1021 30.15 850 25.1 18.1 64.7 48 7.2 44.9 18.44 0.726
10:53 1021 30.15 850 25.1 18.2 64.8 46 6.5 43.8 18.48 0.728
10:54 1021 30.15 850 25.1 18.3 64.9 49 7.6 45.7 18.55 0.73
10:55 1021 30.15 850 25.1 18.3 64.9 52 8.3 47 18.52 0.729
10:56 1021 30.15 850 25.1 18.4 65 48 7.3 45.2 18.63 0.733
10:57 1021 30.15 850 25.1 18.4 65.2 52 8.4 47.2 18.7 0.736
10:58 1021 30.15 850 25.1 18.5 65.4 48 7.5 45.6 18.83 0.741
10:59 1021 30.15 850 25.1 18.6 65.5 49 7.9 46.3 18.82 0.741
11:00 1021 30.15 850 25.1 18.6 65.4 48 7.6 45.7 18.83 0.741
11:01 1021 30.15 850 25.1 18.6 65.5 48 7.3 45.2 18.83 0.741
11:02 1021 30.15 850 25.1 18.7 65.6 44 6.5 43.6 18.87 0.743
11:03 1021 30.15 850 25.1 18.6 65.5 50 8 46.5 18.88 0.743
11:04 1021 30.15 850 25.1 18.6 65.5 47 7.2 45 18.87 0.743
11:05 1021 30.15 850 25.1 18.8 65.8 46 7 44.6 19 0.748
11:06 1021 30.15 850 25.1 18.8 65.8 46 7.1 44.8 19.03 0.749
11:07 1021 30.15 850 25.1 18.7 65.7 47 7.2 44.9 18.98 0.747
11:08 1021 30.15 850 25.1 18.7 65.7 49 8 46.4 18.98 0.747
11:09 1021 30.15 850 25.1 18.8 65.8 47 7.2 45 18.99 0.748
11:10 1021 30.15 850 25.1 18.8 65.8 48 7.7 45.8 18.96 0.746
11:11 1021 30.15 850 25.1 18.8 65.8 48 7.5 45.5 18.97 0.747
11:12 1021 30.15 850 25.1 18.8 65.8 49 8 46.4 18.98 0.747
11:13 1021 30.15 850 25.1 18.8 65.8 41 5.5 41.9 18.98 0.747
11:14 1021 30.15 850 25.1 18.8 65.8 45 6.6 43.9 18.96 0.746
11:15 1021 30.15 850 25.1 18.8 65.9 46 7 44.6 19.07 0.751
11:16 1021 30.15 850 25.1 18.9 66 47 7.3 45.2 19.19 0.756
11:17 1021 30.15 850 25.1 19 66.1 49 8.2 46.8 19.16 0.754
11:18 1021 30.15 850 25.1 18.9 66 44 6.6 43.9 19.19 0.756
11:19 1021 30.15 850 25.1 18.9 65.9 47 7.5 45.5 19.19 0.756
11:20 1021 30.15 850 25.1 19 66.1 46 7.3 45.1 19.25 0.758
11:21 1021 30.15 850 25.1 19 66.3 48 7.9 46.1 19.3 0.76
11:22 1021 30.15 850 25.1 19.2 66.5 49 8.5 47.3 19.43 0.765
11:23 1021 30.15 850 25.1 19.3 66.7 50 8.7 47.7 19.51 0.768
11:24 1021 30.15 850 25.1 19.3 66.8 51 9 48.2 19.55 0.77
11:25 1021 30.15 850 25.1 19.4 66.9 44 7 44.5 19.59 0.771
11:26 1021 30.15 850 25.1 19.2 66.6 43 6.6 43.9 19.37 0.763
11:27 1021 30.15 850 25.1 19.1 66.5 49 8.3 47 19.36 0.762
11:28 1021 30.15 850 25.1 19 66.3 48 7.8 46 19.4 0.764
11:29 1021 30.15 850 25.1 19 66.3 48 8 46.4 19.39 0.763
11:30 1021 30.15 850 25.1 19.1 66.4 48 8 46.3 19.39 0.763
11:31 1021 30.15 850 25.1 19.2 66.6 42 6.1 42.9 19.46 0.766
11:32 1021 30.15 850 25.1 19.3 66.7 46 7.5 45.5 19.44 0.765
11:33 1021 30.15 850 25.1 19.4 66.8 53 9.7 49.5 19.61 0.772
11:34 1021 30.15 850 25.1 19.5 67.1 41 6.1 43 19.77 0.778
11:35 1021 30.15 850 25.1 19.5 67.1 45 7.3 45.1 19.71 0.776
11:36 1021 30.15 850 25.1 19.6 67.2 46 7.8 46.1 19.75 0.778
11:37 1021 30.15 850 25.1 19.6 67.3 46 7.6 45.8 19.87 0.782
11:38 1021 30.15 850 25.1 19.7 67.4 43 6.9 44.4 19.85 0.781
11:39 1021 30.15 850 25.1 19.7 67.5 51 9.4 48.9 19.89 0.783
11:40 1021 30.15 850 25.1 19.8 67.6 42 6.5 43.7 19.96 0.786
11:41 1021 30.15 850 25.1 19.9 67.7 49 9 48.2 19.93 0.785
11:42 1021 30.15 850 25.1 19.9 67.8 49 9 48.1 20.05 0.789
11:43 1021 30.15 850 25.1 19.9 67.9 44 7.6 45.7 20.04 0.789
11:44 1021 30.15 850 25.1 19.8 67.7 42 6.7 44.1 19.93 0.785
11:45 1021 30.15 850 25.1 19.8 67.6 41 6.2 43.1 20 0.787
11:46 1021 30.15 850 25.1 19.8 67.7 40 6 42.8 20.01 0.788
11:47 1021 30.15 850 25.1 19.7 67.5 44 7.2 45 19.91 0.784
11:48 1021 30.15 850 25.1 19.7 67.4 44 7.1 44.8 19.85 0.781
11:49 1021 30.15 850 25.1 19.6 67.3 42 6.6 43.8 19.85 0.781
11:50 1021 30.15 850 25.1 19.6 67.3 45 7.5 45.6 19.88 0.783
11:51 1021 30.15 850 25.1 19.7 67.4 46 7.9 46.3 19.9 0.783
11:52 1021 30.15 850 25.1 19.7 67.4 46 8 46.4 19.89 0.783
11:53 1021 30.15 850 25.1 19.7 67.5 44 7.3 45.1 19.9 0.783
11:54 1021 30.15 850 25.1 19.7 67.5 45 7.5 45.5 19.99 0.787
11:55 1021 30.15 850 25.1 19.7 67.5 43 6.8 44.3 19.91 0.784
11:56 1021 30.15 850 25.1 19.7 67.5 41 6.4 43.5 19.98 0.787
11:57 1021 30.15 850 25.1 19.7 67.4 41 6.4 43.5 19.9 0.783
11:58 1021 30.15 850 25.1 19.7 67.4 43 6.8 44.3 19.88 0.783
11:59 1021 30.15 850 25.1 19.7 67.5 44 7.1 44.8 19.95 0.785
12:00 1021 30.15 850 25.1 19.8 67.6 41 6.4 43.5 20.05 0.789
12:01 1021 30.15 850 25.1 19.9 67.7 43 7.2 44.9 20.06 0.79
12:02 1021 30.15 850 25.1 19.9 67.9 45 7.9 46.2 20.17 0.794
12:03 1021 30.15 850 25.1 20 68 47 8.6 47.4 20.3 0.799
12:04 1021 30.15 850 25.1 20.1 68.2 48 8.9 48 20.41 0.804
12:05 1021 30.15 850 25.1 20.1 68.3 47 8.6 47.5 20.37 0.802
12:06 1021 30.15 850 25.1 20 68.1 39 5.9 42.6 20.26 0.798
12:07 1021 30.15 850 25.1 20.1 68.1 47 8.6 47.4 20.23 0.796
12:08 1021 30.15 850 25.1 20.1 68.1 41 6.7 44 20.28 0.798
12:09 1021 30.15 850 25.1 20.1 68.1 48 8.8 47.8 20.34 0.801
12:10 1021 30.15 850 25.1 20.2 68.3 44 7.8 46 20.45 0.805
12:11 1021 30.15 850 25.1 20.2 68.4 44 7.9 46.2 20.41 0.804
12:12 1021 30.15 850 25.1 20.2 68.3 46 8.4 47 20.35 0.801
12:13 1021 30.15 850 25.1 20.1 68.2 40 6.2 43.2 20.34 0.801
12:14 1021 30.15 850 25.1 20.1 68.1 47 8.5 47.3 20.3 0.799
12:15 1021 30.15 850 25.1 20.2 68.4 47 8.8 47.9 20.52 0.808
12:16 1021 30.15 850 25.1 20.3 68.6 47 8.9 48 20.56 0.809
12:17 1021 30.15 850 25.1 20.4 68.8 38 6 42.7 20.61 0.811
12:18 1021 30.15 850 25.1 20.4 68.7 43 7.6 45.6 20.6 0.811
12:19 1021 30.15 850 25.1 20.4 68.8 44 8 46.5 20.68 0.814
12:20 1021 30.15 850 25.1 20.5 68.9 43 7.7 45.9 20.77 0.818
12:21 1021 30.15 850 25.1 20.6 69 40 6.6 43.8 20.86 0.821
12:22 1021 30.15 850 25.1 20.7 69.3 45 8.5 47.3 21.02 0.828
12:23 1021 30.15 850 25.1 20.9 69.6 45 8.8 47.8 21.17 0.833
12:24 1021 30.15 850 25.1 20.9 69.7 38 6.4 43.5 21.1 0.831
12:25 1021 30.15 850 25.1 20.7 69.3 38 6.2 43.1 20.92 0.824
12:26 1021 30.15 850 25.1 20.6 69.1 46 8.6 47.5 20.79 0.819
12:27 1021 30.15 850 25.1 20.6 69.1 48 9.5 49.1 20.92 0.824
12:28 1021 30.15 850 25.1 20.7 69.2 43 7.9 46.2 20.98 0.826
12:29 1021 30.15 850 25.1 20.8 69.4 42 7.5 45.5 21.15 0.833
12:30 1020 30.12 850 25.1 20.8 69.5 47 9.1 48.4 21.21 0.835
12:31 1020 30.12 850 25.1 20.9 69.7 43 8 46.5 21.36 0.841
12:32 1020 30.12 850 25.1 21 69.8 42 7.8 46 21.38 0.842
12:33 1020 30.12 850 25.1 21 69.7 41 7.3 45.2 21.24 0.836
12:34 1020 30.12 850 25.1 20.9 69.5 40 6.9 44.5 21.13 0.832
12:35 1020 30.12 850 25.1 20.8 69.4 42 7.6 45.8 21.05 0.829
12:36 1020 30.12 850 25.1 20.8 69.5 46 8.9 48.1 21.12 0.831
12:37 1020 30.12 850 25.1 21 69.7 44 8.4 47.1 21.3 0.839
12:38 1020 30.12 850 25.1 21.1 70 40 7 44.5 21.38 0.842
12:39 1020 30.12 850 25.1 21.2 70.1 42 7.8 46.1 21.41 0.843
12:40 1020 30.12 850 25.1 21.2 70.1 44 8.5 47.3 21.35 0.841
12:41 1020 30.12 850 25.1 21.2 70.1 38 6.5 43.8 21.35 0.841
12:42 1020 30.12 850 25.1 21.2 70.2 42 7.9 46.3 21.5 0.846
12:43 1020 30.12 850 25.1 21.3 70.3 40 7.3 45.1 21.5 0.846
12:44 1020 30.12 849 25.07 21.3 70.3 42 8 46.3 21.47 0.845
12:45 1020 30.12 849 25.07 21.3 70.3 39 7 44.7 21.56 0.849
12:46 1020 30.12 849 25.07 21.2 70.2 43 8.2 46.8 21.48 0.846
12:47 1020 30.12 849 25.07 21.2 70.2 42 7.9 46.2 21.47 0.845
12:48 1020 30.12 849 25.07 21.2 70.1 38 6.3 43.4 21.43 0.844
12:49 1020 30.12 849 25.07 21.1 69.9 44 8.5 47.3 21.36 0.841
12:50 1020 30.12 849 25.07 21.1 70 42 7.8 46 21.45 0.844
12:51 1020 30.12 849 25.07 21.2 70.1 42 7.9 46.2 21.46 0.845
12:52 1020 30.12 849 25.07 21.2 70.2 47 9.7 49.4 21.54 0.848
12:53 1020 30.12 849 25.07 21.3 70.4 42 8 46.5 21.64 0.852
12:54 1020 30.12 849 25.07 21.4 70.5 43 8.3 47 21.65 0.852
12:55 1020 30.12 849 25.07 21.4 70.5 38 6.6 43.9 21.66 0.853
12:56 1020 30.12 849 25.07 21.4 70.5 44 8.8 47.9 21.6 0.85
12:57 1020 30.12 849 25.07 21.4 70.6 40 7.5 45.4 21.69 0.854
12:58 1020 30.12 849 25.07 21.5 70.7 40 7.4 45.2 21.8 0.858
12:59 1020 30.12 849 25.07 21.6 70.9 41 7.9 46.2 21.86 0.861
13:00 1020 30.12 849 25.07 21.7 71.1 40 7.6 45.6 21.95 0.864
13:01 1020 30.12 849 25.07 21.8 71.3 41 8.3 47 22.16 0.872
13:02 1020 30.12 849 25.07 22 71.5 41 8.2 46.7 22.35 0.88
13:03 1020 30.12 849 25.07 22.1 71.7 39 7.6 45.6 22.38 0.881
13:04 1020 30.12 849 25.07 22.1 71.8 40 8.2 46.7 22.44 0.883
13:05 1020 30.12 849 25.07 22.1 71.8 38 7.4 45.3 22.36 0.88
13:06 1020 30.12 849 25.07 22 71.6 40 8.1 46.5 22.22 0.875
13:07 1020 30.12 849 25.07 22 71.6 37 6.8 44.3 22.17 0.873
13:08 1020 30.12 849 25.07 22.1 71.8 39 7.6 45.6 22.38 0.881
13:09 1020 30.12 849 25.07 22.2 72 35 6.3 43.3 22.54 0.887
13:10 1020 30.12 849 25.07 22.2 72 39 7.8 46.1 22.55 0.888
13:11 1020 30.12 849 25.07 22.4 72.3 35 6.3 43.4 22.72 0.894
13:12 1020 30.12 849 25.07 22.5 72.4 35 6.3 43.4 22.76 0.896
13:13 1020 30.12 849 25.07 22.5 72.5 37 7.3 45.2 22.81 0.898
13:14 1020 30.12 849 25.07 22.6 72.6 36 6.9 44.5 22.89 0.901
13:15 1020 30.12 849 25.07 22.5 72.5 35 6.6 43.9 22.76 0.896
13:16 1020 30.12 849 25.07 22.4 72.4 35 6.5 43.8 22.8 0.898
13:17 1020 30.12 849 25.07 22.5 72.4 39 7.9 46.3 22.78 0.897
13:18 1020 30.12 849 25.07 22.5 72.6 34 6.2 43.2 22.86 0.9
13:19 1020 30.12 849 25.07 22.5 72.6 38 7.5 45.5 22.81 0.898
13:20 1020 30.12 849 25.07 22.6 72.6 37 7.4 45.4 22.91 0.902
13:21 1020 30.12 849 25.07 22.6 72.7 35 6.4 43.5 22.96 0.904
13:22 1020 30.12 849 25.07 22.5 72.6 35 6.5 43.7 22.84 0.899
13:23 1020 30.12 849 25.07 22.5 72.5 34 6.1 42.9 22.85 0.9
13:24 1020 30.12 849 25.07 22.5 72.5 35 6.3 43.4 22.76 0.896
13:25 1020 30.12 849 25.07 22.4 72.3 38 7.6 45.7 22.8 0.898
13:26 1020 30.12 849 25.07 22.6 72.7 38 7.9 46.2 22.98 0.905
13:27 1020 30.12 849 25.07 22.8 73 37 7.5 45.5 23.09 0.909
13:28 1020 30.12 849 25.07 22.8 73 36 7.1 44.9 23.09 0.909
13:29 1020 30.12 849 25.07 22.8 73.1 35 6.8 44.2 23.14 0.911
13:30 1020 30.12 849 25.07 22.8 73 38 8 46.5 23.02 0.906
13:31 1019 30.09 849 25.07 22.6 72.7 36 7.1 44.8 22.98 0.905
13:32 1019 30.09 849 25.07 22.6 72.7 35 6.8 44.2 22.92 0.902
13:33 1019 30.09 849 25.07 22.5 72.5 39 7.9 46.3 22.84 0.899
13:34 1019 30.09 849 25.07 22.6 72.6 38 7.7 45.9 22.93 0.903
13:35 1019 30.09 849 25.07 22.7 72.9 36 6.9 44.4 23.09 0.909
13:36 1019 30.09 849 25.07 22.8 73 35 6.9 44.4 23.05 0.907
13:37 1019 30.09 849 25.07 22.7 72.8 33 6 42.8 22.98 0.905
13:38 1019 30.09 849 25.07 22.6 72.7 34 6.2 43.2 22.91 0.902
13:39 1019 30.09 849 25.07 22.6 72.8 36 7.1 44.7 22.97 0.904
13:40 1019 30.09 849 25.07 22.8 73 36 7 44.7 23.16 0.912
13:41 1019 30.09 849 25.07 22.8 73.1 36 7.3 45.1 23.14 0.911
13:42 1019 30.09 849 25.07 22.8 73.1 35 6.7 44.1 23.14 0.911
13:43 1019 30.09 849 25.07 22.8 73.1 33 6 42.7 23.12 0.91
13:44 1019 30.09 848 25.04 22.8 73 36 7.2 45 23.11 0.91
13:45 1019 30.09 848 25.04 22.8 73.1 36 7.3 45.1 23.18 0.913
13:46 1019 30.09 848 25.04 22.9 73.3 35 6.8 44.2 23.24 0.915
13:47 1019 30.09 848 25.04 22.9 73.2 35 6.9 44.4 23.24 0.915
13:48 1019 30.09 848 25.04 22.9 73.2 33 6.1 42.9 23.25 0.915
13:49 1019 30.09 848 25.04 22.9 73.2 35 6.9 44.4 23.21 0.914
13:50 1019 30.09 848 25.04 22.9 73.2 37 7.7 45.9 23.26 0.916
13:51 1019 30.09 848 25.04 22.9 73.3 35 6.7 44.1 23.33 0.919
13:52 1019 30.09 849 25.07 23 73.3 35 6.8 44.3 23.25 0.915
13:53 1019 30.09 849 25.07 22.9 73.1 35 7 44.5 23.22 0.914
13:54 1019 30.09 849 25.07 22.9 73.1 35 6.9 44.4 23.2 0.913
13:55 1019 30.09 848 25.04 22.9 73.1 36 7.2 45 23.22 0.914
13:56 1019 30.09 849 25.07 23 73.4 37 7.6 45.7 23.39 0.921
13:57 1019 30.09 848 25.04 23.2 73.7 37 7.8 46 23.56 0.928
13:58 1019 30.09 848 25.04 23.2 73.7 35 6.9 44.4 23.49 0.925
13:59 1019 30.09 848 25.04 23.1 73.7 38 8.1 46.6 23.45 0.923
14:00 1019 30.09 848 25.04 23.2 73.7 34 6.6 44 23.51 0.926
14:01 1019 30.09 848 25.04 23.1 73.7 33 6.3 43.3 23.47 0.924
14:02 1019 30.09 848 25.04 23.1 73.5 35 6.8 44.3 23.4 0.921
14:03 1019 30.09 848 25.04 23 73.5 34 6.5 43.6 23.39 0.921
14:04 1019 30.09 848 25.04 23.1 73.5 33 6.1 42.9 23.4 0.921
14:05 1019 30.09 848 25.04 23.1 73.5 33 6 42.8 23.4 0.921
14:06 1019 30.09 848 25.04 23.1 73.5 36 7.5 45.5 23.45 0.923
14:07 1019 30.09 848 25.04 23.1 73.7 33 6.4 43.5 23.49 0.925
14:08 1019 30.09 848 25.04 23.2 73.7 34 6.9 44.3 23.47 0.924
14:09 1019 30.09 848 25.04 23.2 73.7 36 7.3 45.1 23.44 0.923
14:10 1019 30.09 848 25.04 23.1 73.6 34 6.6 43.9 23.44 0.923
14:11 1019 30.09 848 25.04 23.1 73.5 36 7.4 45.4 23.36 0.92
14:12 1019 30.09 848 25.04 23.1 73.7 36 7.4 45.2 23.56 0.928
14:13 1019 30.09 848 25.04 23.4 74 36 7.8 46.1 23.77 0.936
14:14 1019 30.09 848 25.04 23.5 74.3 36 7.7 45.8 23.85 0.939
14:15 1019 30.09 848 25.04 23.6 74.5 36 7.8 46 23.95 0.943
14:16 1019 30.09 848 25.04 23.7 74.7 33 6.9 44.5 24.1 0.949
14:17 1019 30.09 848 25.04 23.8 74.8 36 7.9 46.2 24.1 0.949
14:18 1019 30.09 848 25.04 23.8 74.9 36 8.1 46.5 24.13 0.95
14:19 1019 30.09 848 25.04 23.7 74.6 32 6.2 43.2 23.92 0.942
14:20 1019 30.09 848 25.04 23.4 74 35 7.4 45.3 23.7 0.933
14:21 1019 30.09 848 25.04 23.3 74 36 7.8 46 23.69 0.933
14:22 1019 30.09 848 25.04 23.4 74.1 37 8.2 46.8 23.79 0.937
14:23 1019 30.09 848 25.04 23.5 74.2 37 8 46.4 23.81 0.937
14:24 1019 30.09 848 25.04 23.4 74.2 35 7.2 44.9 23.85 0.939
14:25 1019 30.09 848 25.04 23.6 74.4 33 6.5 43.7 23.95 0.943
14:26 1019 30.09 848 25.04 23.4 74.1 35 7.2 45 23.74 0.935
14:27 1019 30.09 848 25.04 23.4 74 34 6.6 43.9 23.74 0.935
14:28 1019 30.09 848 25.04 23.3 74 33 6.2 43.1 23.65 0.931
14:29 1019 30.09 848 25.04 23.2 73.8 32 5.7 42.3 23.57 0.928
14:30 1019 30.09 848 25.04 23.1 73.6 36 7.5 45.5 23.48 0.924
14:31 1019 30.09 848 25.04 23.2 73.8 33 6.3 43.3 23.62 0.93
14:32 1019 30.09 848 25.04 23.4 74.1 34 6.7 44.1 23.77 0.936
14:33 1019 30.09 848 25.04 23.4 74.2 33 6.4 43.5 23.71 0.933
14:34 1019 30.09 848 25.04 23.3 74 32 6.1 43 23.66 0.931
14:35 1019 30.09 848 25.04 23.2 73.8 36 7.3 45.2 23.61 0.93
14:36 1019 30.09 848 25.04 23.3 73.9 35 7.1 44.8 23.73 0.934
14:37 1019 30.09 848 25.04 23.4 74 33 6.4 43.5 23.77 0.936
14:38 1019 30.09 848 25.04 23.3 74 34 6.8 44.3 23.68 0.932
14:39 1019 30.09 848 25.04 23.3 73.9 34 6.8 44.2 23.67 0.932
14:40 1019 30.09 848 25.04 23.3 74 33 6.4 43.5 23.75 0.935
14:41 1019 30.09 848 25.04 23.4 74.1 31 5.7 42.2 23.79 0.937
14:42 1019 30.09 848 25.04 23.4 74.2 31 5.8 42.4 23.82 0.938
14:43 1019 30.09 848 25.04 23.4 74.1 34 7 44.7 23.77 0.936
14:44 1019 30.09 848 25.04 23.5 74.3 33 6.7 44 23.9 0.941
14:45 1019 30.09 848 25.04 23.6 74.5 33 6.6 43.8 23.98 0.944
14:46 1019 30.09 848 25.04 23.7 74.7 36 8 46.5 24.09 0.948
14:47 1019 30.09 848 25.04 23.9 75 32 6.3 43.3 24.27 0.956
14:48 1019 30.09 848 25.04 23.9 75.1 31 6 42.7 24.24 0.954
14:49 1019 30.09 848 25.04 23.7 74.7 32 6.4 43.5 24.01 0.945
14:50 1019 30.09 848 25.04 23.5 74.4 33 6.6 44 23.84 0.939
14:51 1019 30.09 848 25.04 23.4 74 34 6.7 44 23.67 0.932
14:52 1019 30.09 848 25.04 23.3 73.9 32 5.8 42.4 23.64 0.931
14:53 1019 30.09 848 25.04 23.3 74 32 5.8 42.4 23.64 0.931
14:54 1019 30.09 848 25.04 23.3 73.9 33 6.3 43.4 23.62 0.93
14:55 1019 30.09 848 25.04 23.3 73.9 35 7.2 44.9 23.64 0.931
14:56 1019 30.09 848 25.04 23.3 73.9 35 7.3 45.1 23.6 0.929
14:57 1019 30.09 848 25.04 23.2 73.8 34 6.6 43.9 23.61 0.93
14:58 1019 30.09 848 25.04 23.3 73.9 33 6.4 43.5 23.67 0.932
14:59 1019 30.09 848 25.04 23.3 74 35 7 44.7 23.66 0.931
15:00 1019 30.09 848 25.04 23.3 73.9 33 6.4 43.4 23.62 0.93
15:01 1019 30.09 848 25.04 23.2 73.7 34 6.7 44.1 23.48 0.924
15:02 1019 30.09 848 25.04 23 73.4 34 6.5 43.7 23.36 0.92
15:03 1019 30.09 848 25.04 22.8 73.1 37 7.4 45.3 23.14 0.911
15:04 1019 30.09 848 25.04 22.7 72.9 36 7.1 44.9 23.05 0.907
15:05 1019 30.09 848 25.04 22.6 72.8 37 7.3 45.1 23 0.906
15:06 1019 30.09 848 25.04 22.6 72.7 35 6.5 43.6 23 0.906
15:07 1019 30.09 848 25.04 22.7 72.8 37 7.5 45.5 23.09 0.909
15:08 1019 30.09 848 25.04 22.8 73 37 7.7 45.8 23.16 0.912
15:09 1019 30.09 848 25.04 22.9 73.1 36 7 44.7 23.25 0.915
15:10 1019 30.09 848 25.04 23 73.3 34 6.5 43.7 23.31 0.918
15:11 1019 30.09 848 25.04 23.1 73.6 36 7.6 45.6 23.5 0.925
15:12 1019 30.09 848 25.04 23.3 73.9 33 6.3 43.4 23.62 0.93
15:13 1019 30.09 848 25.04 23.3 73.9 33 6.4 43.6 23.64 0.931
15:14 1018 30.06 848 25.04 23.3 73.9 34 6.6 43.8 23.66 0.931
15:15 1018 30.06 848 25.04 23.3 74 34 6.8 44.3 23.71 0.933
15:16 1018 30.06 848 25.04 23.4 74 34 6.7 44.1 23.71 0.933
15:17 1018 30.06 848 25.04 23.4 74.1 36 7.8 46.1 23.79 0.937
15:18 1018 30.06 848 25.04 23.5 74.3 33 6.7 44 23.88 0.94
15:19 1019 30.09 848 25.04 23.5 74.4 35 7.5 45.6 23.93 0.942
15:20 1019 30.09 848 25.04 23.6 74.4 37 8.2 46.7 23.99 0.944
15:21 1019 30.09 848 25.04 23.7 74.7 34 7.3 45.1 24.09 0.948
15:22 1019 30.09 848 25.04 23.8 74.8 33 6.9 44.4 24.11 0.949
15:23 1019 30.09 848 25.04 23.8 74.9 36 8 46.5 24.19 0.952
15:24 1019 30.09 848 25.04 24 75.1 35 7.6 45.7 24.32 0.957
15:25 1019 30.09 848 25.04 24 75.2 37 8.5 47.3 24.36 0.959
15:26 1018 30.06 848 25.04 24.1 75.3 32 6.5 43.7 24.41 0.961
15:27 1019 30.09 848 25.04 24.1 75.4 35 8.1 46.5 24.4 0.961
15:28 1019 30.09 848 25.04 24.2 75.6 34 7.5 45.5 24.57 0.967
15:29 1019 30.09 848 25.04 24.3 75.7 32 6.7 44.1 24.6 0.969
15:30 1018 30.06 848 25.04 24.2 75.6 33 7.2 45 24.51 0.965
15:31 1018 30.06 848 25.04 24.2 75.5 32 6.7 44 24.49 0.964
15:32 1018 30.06 848 25.04 24.1 75.4 34 7.5 45.5 24.4 0.961
15:33 1019 30.09 848 25.04 24.1 75.4 34 7.5 45.5 24.45 0.963
15:34 1019 30.09 848 25.04 24.2 75.5 33 6.9 44.5 24.52 0.965
15:35 1019 30.09 848 25.04 24.2 75.6 33 7.2 45 24.56 0.967
15:36 1018 30.06 848 25.04 24.3 75.8 32 6.9 44.5 24.67 0.971
15:37 1018 30.06 848 25.04 24.3 75.7 32 6.8 44.2 24.57 0.967
15:38 1018 30.06 848 25.04 24.1 75.3 32 6.7 44 24.35 0.959
15:39 1019 30.09 848 25.04 23.9 75 32 6.4 43.5 24.22 0.954
15:40 1019 30.09 848 25.04 23.8 74.8 34 7.3 45.1 24.04 0.946
15:41 1018 30.06 848 25.04 23.6 74.5 33 6.6 43.9 23.86 0.939
15:42 1018 30.06 848 25.04 23.4 74 34 6.7 44 23.66 0.931
15:43 1019 30.09 848 25.04 23.2 73.7 35 7.1 44.8 23.46 0.924
15:44 1018 30.06 848 25.04 23 73.5 35 6.8 44.2 23.38 0.92
15:45 1018 30.06 848 25.04 23 73.4 34 6.6 43.8 23.29 0.917
15:46 1018 30.06 848 25.04 22.8 73.1 36 7 44.6 23.18 0.913
15:47 1018 30.06 848 25.04 22.7 72.9 34 6.4 43.5 23.08 0.909
15:48 1018 30.06 848 25.04 22.7 72.8 37 7.5 45.5 22.99 0.905
15:49 1018 30.06 848 25.04 22.6 72.6 36 7 44.6 22.9 0.902
15:50 1018 30.06 848 25.04 22.5 72.5 35 6.6 43.9 22.89 0.901
15:51 1019 30.09 848 25.04 22.5 72.5 36 6.8 44.3 22.83 0.899
15:52 1018 30.06 848 25.04 22.5 72.4 35 6.5 43.7 22.82 0.898
15:53 1018 30.06 848 25.04 22.5 72.5 36 6.7 44.1 22.81 0.898
15:54 1019 30.09 848 25.04 22.5 72.4 37 7.2 44.9 22.81 0.898
15:55 1019 30.09 848 25.04 22.5 72.5 37 7.4 45.3 22.83 0.899
15:56 1019 30.09 848 25.04 22.5 72.4 36 7 44.5 22.81 0.898
15:57 1018 30.06 848 25.04 22.4 72.4 36 7 44.6 22.76 0.896
15:58 1019 30.09 848 25.04 22.4 72.3 36 6.9 44.4 22.73 0.895
15:59 1019 30.09 848 25.04 22.3 72.2 36 6.9 44.4 22.68 0.893
16:00 1018 30.06 848 25.04 22.3 72.1 37 7.1 44.8 22.65 0.892
16:01 1018 30.06 848 25.04 22.2 72 36 6.5 43.7 22.55 0.888
16:02 1018 30.06 848 25.04 22.2 72 36 6.7 44.1 22.56 0.888
16:03 1018 30.06 848 25.04 22.2 71.9 35 6.2 43.2 22.57 0.889
16:04 1019 30.09 848 25.04 22.2 72 37 6.9 44.4 22.61 0.89
16:05 1018 30.06 848 25.04 22.3 72.1 37 7.1 44.8 22.6 0.89
16:06 1018 30.06 848 25.04 22.2 72 36 6.5 43.7 22.54 0.887
16:07 1018 30.06 848 25.04 22.2 71.9 37 7 44.6 22.53 0.887
16:08 1018 30.06 848 25.04 22.1 71.8 36 6.5 43.7 22.47 0.885
16:09 1018 30.06 848 25.04 22.1 71.8 37 6.9 44.5 22.5 0.886
16:10 1018 30.06 848 25.04 22.1 71.8 36 6.5 43.7 22.42 0.883
16:11 1018 30.06 848 25.04 22.1 71.7 37 7 44.6 22.44 0.883
16:12 1018 30.06 848 25.04 22 71.7 34 5.7 42.2 22.43 0.883
16:13 1018 30.06 848 25.04 22.1 71.9 35 6.3 43.4 22.52 0.887
16:14 1018 30.06 848 25.04 22.1 71.8 35 6.3 43.4 22.5 0.886
16:15 1018 30.06 848 25.04 22.2 71.9 36 6.7 44.1 22.53 0.887
16:16 1018 30.06 848 25.04 22.1 71.9 35 6.3 43.4 22.5 0.886
16:17 1018 30.06 847 25.01 22.1 71.7 35 5.9 42.7 22.43 0.883
16:18 1018 30.06 848 25.04 22.1 71.8 37 7 44.6 22.43 0.883
16:19 1018 30.06 848 25.04 22.1 71.7 36 6.5 43.7 22.39 0.881
16:20 1018 30.06 848 25.04 22.1 71.7 35 6.1 42.9 22.46 0.884
16:21 1018 30.06 848 25.04 22.1 71.8 36 6.5 43.7 22.47 0.885
16:22 1018 30.06 848 25.04 22.2 71.9 35 6.4 43.5 22.54 0.887
16:23 1018 30.06 848 25.04 22.2 71.9 38 7.3 45.2 22.51 0.886
16:24 1018 30.06 848 25.04 22.1 71.8 35 6.3 43.3 22.46 0.884
16:25 1018 30.06 848 25.04 22.1 71.8 39 7.7 45.9 22.43 0.883
16:26 1018 30.06 848 25.04 22.1 71.7 35 5.9 42.6 22.44 0.883
16:27 1018 30.06 848 25.04 22.2 71.9 36 6.4 43.5 22.51 0.886
16:28 1018 30.06 847 25.01 22.2 72 37 7 44.7 22.59 0.889
16:29 1018 30.06 848 25.04 22.3 72.1 36 6.6 43.9 22.62 0.891
16:30 1018 30.06 848 25.04 22.4 72.2 35 6.5 43.6 22.71 0.894
16:31 1018 30.06 848 25.04 22.4 72.3 37 7 44.7 22.76 0.896
16:32 1018 30.06 847 25.01 22.4 72.3 36 6.7 44.1 22.73 0.895
16:33 1018 30.06 847 25.01 22.4 72.4 35 6.4 43.5 22.74 0.895
16:34 1018 30.06 847 25.01 22.4 72.4 37 7.2 44.9 22.79 0.897
16:35 1018 30.06 847 25.01 22.4 72.4 36 6.7 44 22.78 0.897
16:36 1018 30.06 847 25.01 22.4 72.4 36 6.8 44.2 22.76 0.896
16:37 1018 30.06 847 25.01 22.4 72.3 36 6.8 44.2 22.77 0.896
16:38 1018 30.06 847 25.01 22.4 72.4 36 7 44.6 22.74 0.895
16:39 1018 30.06 847 25.01 22.4 72.2 35 6.3 43.4 22.7 0.894
16:40 1018 30.06 847 25.01 22.3 72.1 36 6.6 43.9 22.69 0.893
16:41 1018 30.06 847 25.01 22.3 72.1 36 6.9 44.4 22.62 0.891
16:42 1018 30.06 847 25.01 22.2 72 35 6.3 43.4 22.58 0.889
16:43 1018 30.06 847 25.01 22.2 72 36 6.6 43.9 22.57 0.889
16:44 1018 30.06 847 25.01 22.2 71.9 37 6.8 44.3 22.51 0.886
16:45 1018 30.06 848 25.04 22.1 71.8 36 6.7 44 22.49 0.885
16:46 1018 30.06 848 25.04 22.2 71.9 36 6.4 43.5 22.5 0.886
16:47 1018 30.06 848 25.04 22.1 71.8 36 6.6 43.8 22.43 0.883
16:48 1018 30.06 848 25.04 22.1 71.7 37 6.7 44.1 22.42 0.883
16:49 1018 30.06 848 25.04 22.1 71.7 35 6.1 43 22.43 0.883
16:50 1018 30.06 848 25.04 22.1 71.8 35 6 42.9 22.4 0.882
16:51 1018 30.06 848 25.04 22.1 71.7 36 6.5 43.8 22.43 0.883
16:52 1018 30.06 848 25.04 22 71.6 35 6.2 43.1 22.37 0.881
16:53 1018 30.06 848 25.04 22 71.5 36 6.3 43.3 22.32 0.879
16:54 1018 30.06 848 25.04 22 71.5 36 6.6 43.8 22.29 0.878
16:55 1018 30.06 848 25.04 21.9 71.4 37 6.8 44.3 22.25 0.876
16:56 1018 30.06 848 25.04 21.9 71.4 37 6.8 44.3 22.21 0.874
16:57 1018 30.06 848 25.04 21.9 71.5 37 6.9 44.4 22.26 0.876
16:58 1018 30.06 848 25.04 21.9 71.4 35 5.9 42.6 22.27 0.877
16:59 1018 30.06 848 25.04 21.9 71.4 37 6.6 43.9 22.27 0.877
17:00 1018 30.06 848 25.04 21.9 71.3 38 7 44.5 22.23 0.875
17:01 1018 30.06 848 25.04 21.8 71.3 36 6.3 43.3 22.13 0.871
17:02 1018 30.06 848 25.04 21.8 71.2 37 6.8 44.3 22.15 0.872
17:03 1018 30.06 848 25.04 21.8 71.2 37 6.6 43.9 22.16 0.872
17:04 1018 30.06 848 25.04 21.8 71.2 37 6.6 43.8 22.15 0.872
17:05 1018 30.06 848 25.04 21.8 71.2 36 6.2 43.1 22.1 0.87
17:06 1018 30.06 848 25.04 21.7 71.1 35 5.9 42.7 22.11 0.87
17:07 1018 30.06 848 25.04 21.8 71.2 36 6.2 43.2 22.13 0.871
17:08 1018 30.06 848 25.04 21.8 71.3 36 6.4 43.5 22.15 0.872
17:09 1018 30.06 848 25.04 21.8 71.2 35 5.9 42.6 22.09 0.87
17:10 1018 30.06 847 25.01 21.8 71.2 33 5.2 41.4 22.14 0.872
17:11 1018 30.06 847 25.01 21.9 71.3 35 6 42.7 22.19 0.874
17:12 1018 30.06 847 25.01 21.9 71.3 36 6.2 43.2 22.23 0.875
17:13 1018 30.06 847 25.01 21.8 71.3 36 6.1 43 22.15 0.872
17:14 1018 30.06 847 25.01 21.8 71.3 35 5.9 42.7 22.16 0.872
17:15 1018 30.06 847 25.01 21.8 71.2 34 5.3 41.5 22.15 0.872
17:16 1018 30.06 847 25.01 21.8 71.3 36 6.1 43 22.15 0.872
17:17 1018 30.06 848 25.04 21.7 71.1 35 5.7 42.3 22.1 0.87
17:18 1018 30.06 848 25.04 21.7 71.1 36 6.2 43.1 22.05 0.868
17:19 1018 30.06 847 25.01 21.7 71 35 5.8 42.5 22.06 0.869
17:20 1018 30.06 847 25.01 21.7 71.1 35 5.8 42.4 22.08 0.869
17:21 1018 30.06 847 25.01 21.7 71.1 34 5.3 41.6 22.06 0.869
17:22 1018 30.06 847 25.01 21.8 71.2 35 6 42.8 22.11 0.87
17:23 1018 30.06 847 25.01 21.8 71.2 34 5.5 41.9 22.1 0.87
17:24 1018 30.06 847 25.01 21.7 71.1 34 5.6 42 22.1 0.87
17:25 1018 30.06 847 25.01 21.7 71.1 35 5.8 42.4 22.08 0.869
17:26 1018 30.06 847 25.01 21.7 71.1 35 5.8 42.4 22.03 0.867
17:27 1018 30.06 847 25.01 21.7 71 36 6 42.8 22.03 0.867
17:28 1018 30.06 847 25.01 21.7 71 34 5.5 41.9 22.02 0.867
17:29 1018 30.06 847 25.01 21.7 71 35 5.9 42.6 21.99 0.866
17:30 1018 30.06 847 25.01 21.6 70.9 35 5.8 42.5 21.95 0.864
17:31 1018 30.06 847 25.01 21.6 70.9 34 5.4 41.8 21.95 0.864
17:32 1018 30.06 847 25.01 21.6 70.9 35 5.6 42 21.95 0.864
17:33 1018 30.06 847 25.01 21.6 70.9 35 5.6 42.1 21.94 0.864
17:34 1018 30.06 847 25.01 21.6 71 35 5.9 42.6 21.97 0.865
17:35 1018 30.06 847 25.01 21.6 70.9 34 5.4 41.8 21.98 0.865
17:36 1018 30.06 847 25.01 21.6 70.9 35 5.8 42.4 22 0.866
17:37 1018 30.06 847 25.01 21.6 70.9 35 5.7 42.2 21.96 0.865
17:38 1018 30.06 847 25.01 21.6 70.9 35 5.8 42.4 21.94 0.864
17:39 1018 30.06 847 25.01 21.7 71 35 5.5 42 22.03 0.867
17:40 1018 30.06 847 25.01 21.7 71 35 5.6 42.1 22 0.866
17:41 1018 30.06 847 25.01 21.7 71 35 5.6 42 22 0.866
17:42 1018 30.06 847 25.01 21.7 71 35 5.7 42.3 22.01 0.867
17:43 1018 30.06 847 25.01 21.6 70.9 35 5.7 42.2 21.92 0.863
17:44 1018 30.06 847 25.01 21.6 70.8 36 6.2 43.2 21.93 0.863
17:45 1018 30.06 847 25.01 21.5 70.7 35 5.8 42.4 21.85 0.86
17:46 1018 30.06 847 25.01 21.5 70.6 35 5.6 42.1 21.86 0.861
17:47 1018 30.06 848 25.04 21.5 70.7 36 5.8 42.5 21.89 0.862
17:48 1018 30.06 848 25.04 21.5 70.8 36 6 42.7 21.89 0.862
17:49 1018 30.06 848 25.04 21.5 70.7 36 6.1 43 21.87 0.861
17:50 1018 30.06 847 25.01 21.5 70.6 36 5.9 42.5 21.79 0.858
17:51 1018 30.06 848 25.04 21.4 70.6 36 5.9 42.6 21.79 0.858
17:52 1018 30.06 848 25.04 21.4 70.5 39 6.9 44.4 21.71 0.855
17:53 1018 30.06 848 25.04 21.3 70.3 37 6 42.8 21.62 0.851
17:54 1018 30.06 848 25.04 21.3 70.3 37 6.2 43.2 21.65 0.852
17:55 1018 30.06 848 25.04 21.3 70.3 37 6 42.8 21.61 0.851
17:56 1018 30.06 848 25.04 21.3 70.4 38 6.6 43.8 21.65 0.852
17:57 1018 30.06 848 25.04 21.3 70.3 36 5.8 42.5 21.62 0.851
17:58 1018 30.06 848 25.04 21.3 70.3 38 6.5 43.7 21.65 0.852
17:59 1019 30.09 848 25.04 21.3 70.4 39 6.9 44.4 21.68 0.854
18:00 1019 30.09 848 25.04 21.3 70.3 37 6 42.8 21.63 0.852
18:01 1019 30.09 848 25.04 21.3 70.3 37 6.2 43.2 21.61 0.851
18:02 1019 30.09 848 25.04 21.3 70.4 37 6.4 43.5 21.64 0.852
18:03 1019 30.09 848 25.04 21.2 70.2 38 6.4 43.5 21.54 0.848
18:04 1019 30.09 848 25.04 21.1 69.9 37 6.1 42.9 21.45 0.844
18:05 1019 30.09 848 25.04 21.1 69.9 38 6.4 43.6 21.46 0.845
18:06 1019 30.09 848 25.04 21.1 70 38 6.4 43.5 21.47 0.845
18:07 1018 30.06 848 25.04 21.1 69.9 37 6.2 43.1 21.44 0.844
18:08 1018 30.06 848 25.04 21.1 69.9 37 6.1 42.9 21.43 0.844
18:09 1018 30.06 848 25.04 21.1 69.9 37 5.9 42.6 21.51 0.847
18:10 1018 30.06 847 25.01 21.2 70.1 38 6.3 43.4 21.51 0.847
18:11 1018 30.06 847 25.01 21.2 70.1 38 6.6 43.9 21.53 0.848
18:12 1018 30.06 847 25.01 21.1 70 37 6.1 43 21.47 0.845
18:13 1018 30.06 847 25.01 21.1 70 37 6 42.8 21.47 0.845
18:14 1018 30.06 847 25.01 21.1 70.1 39 6.8 44.2 21.49 0.846
18:15 1018 30.06 847 25.01 21.1 69.9 37 5.9 42.7 21.44 0.844
18:16 1018 30.06 847 25.01 21.1 70 36 5.8 42.5 21.51 0.847
18:17 1018 30.06 847 25.01 21.2 70.2 37 6.1 43.1 21.54 0.848
18:18 1018 30.06 847 25.01 21.2 70.2 37 6 42.8 21.6 0.85
18:19 1018 30.06 847 25.01 21.3 70.4 37 6.1 42.9 21.64 0.852
18:20 1018 30.06 847 25.01 21.3 70.3 35 5.5 41.9 21.63 0.852
18:21 1018 30.06 847 25.01 21.3 70.3 36 5.6 42.1 21.64 0.852
18:22 1018 30.06 847 25.01 21.3 70.4 37 6.2 43.2 21.71 0.855
18:23 1018 30.06 847 25.01 21.3 70.3 36 5.7 42.3 21.65 0.852
18:24 1018 30.06 847 25.01 21.3 70.3 37 6.2 43.1 21.63 0.852
18:25 1018 30.06 847 25.01 21.2 70.2 36 5.9 42.6 21.57 0.849
18:26 1018 30.06 847 25.01 21.3 70.3 36 6 42.7 21.6 0.85
18:27 1018 30.06 847 25.01 21.3 70.3 36 5.7 42.3 21.63 0.852
18:28 1018 30.06 847 25.01 21.3 70.3 36 5.8 42.4 21.63 0.852
18:29 1018 30.06 847 25.01 21.3 70.3 37 6.2 43.2 21.61 0.851
18:30 1018 30.06 847 25.01 21.3 70.3 36 5.9 42.7 21.56 0.849
18:31 1018 30.06 847 25.01 21.2 70.2 36 5.9 42.6 21.54 0.848
18:32 1018 30.06 847 25.01 21.2 70.1 37 6.2 43.1 21.54 0.848
18:33 1018 30.06 847 25.01 21.2 70.1 37 6.1 43 21.56 0.849
18:34 1018 30.06 847 25.01 21.2 70.2 37 6.2 43.2 21.57 0.849
18:35 1018 30.06 847 25.01 21.2 70.2 36 5.8 42.4 21.6 0.85
18:36 1018 30.06 847 25.01 21.3 70.3 37 6 42.9 21.62 0.851
18:37 1018 30.06 847 25.01 21.3 70.3 37 6.1 43 21.63 0.852
18:38 1018 30.06 847 25.01 21.2 70.2 36 5.8 42.4 21.58 0.85
18:39 1018 30.06 847 25.01 21.2 70.2 38 6.4 43.5 21.55 0.848
18:40 1018 30.06 847 25.01 21.2 70.2 36 5.9 42.6 21.57 0.849
18:41 1018 30.06 847 25.01 21.3 70.3 36 5.9 42.7 21.6 0.85
18:42 1018 30.06 847 25.01 21.3 70.3 37 6.3 43.3 21.57 0.849
18:43 1018 30.06 847 25.01 21.2 70.2 36 5.9 42.6 21.6 0.85
18:44 1018 30.06 847 25.01 21.2 70.2 35 5.5 41.9 21.57 0.849
18:45 1018 30.06 847 25.01 21.3 70.3 36 5.9 42.6 21.6 0.85
18:46 1018 30.06 847 25.01 21.3 70.3 36 5.9 42.6 21.59 0.85
18:47 1018 30.06 847 25.01 21.2 70.2 36 5.6 42.2 21.55 0.848
18:48 1018 30.06 847 25.01 21.2 70.1 37 6 42.7 21.55 0.848
18:49 1018 30.06 847 25.01 21.2 70.1 36 5.8 42.4 21.49 0.846
18:50 1018 30.06 847 25.01 21.1 70 37 6.2 43.1 21.43 0.844
18:51 1018 30.06 847 25.01 21 69.8 37 5.9 42.7 21.35 0.841
18:52 1018 30.06 847 25.01 21 69.9 37 5.9 42.7 21.39 0.842
18:53 1018 30.06 847 25.01 21.1 69.9 37 5.8 42.5 21.42 0.843
18:54 1018 30.06 847 25.01 21.1 69.9 36 5.7 42.3 21.43 0.844
18:55 1018 30.06 847 25.01 21.1 69.9 37 6.1 42.9 21.4 0.843
18:56 1018 30.06 847 25.01 21 69.8 37 6.1 42.9 21.36 0.841
18:57 1018 30.06 847 25.01 21 69.7 37 5.9 42.7 21.3 0.839
18:58 1018 30.06 847 25.01 21 69.8 37 6 42.9 21.31 0.839
18:59 1018 30.06 847 25.01 20.9 69.7 37 6 42.9 21.26 0.837
19:00 1018 30.06 847 25.01 20.9 69.6 37 6 42.8 21.19 0.834
19:01 1018 30.06 847 25.01 20.8 69.5 37 5.9 42.6 21.21 0.835
19:02 1018 30.06 847 25.01 20.9 69.6 38 6 42.8 21.21 0.835
19:03 1018 30.06 847 25.01 20.9 69.5 38 6.3 43.3 21.21 0.835
19:04 1018 30.06 847 25.01 20.8 69.5 38 6.1 43 21.21 0.835
19:05 1018 30.06 847 25.01 20.8 69.4 37 5.8 42.5 21.14 0.832
19:06 1018 30.06 847 25.01 20.8 69.4 39 6.3 43.4 21.1 0.831
19:07 1018 30.06 847 25.01 20.7 69.3 38 6.2 43.1 21.04 0.828
19:08 1018 30.06 847 25.01 20.7 69.3 38 6 42.8 21.09 0.83
19:09 1018 30.06 847 25.01 20.7 69.3 38 6.2 43.1 21.06 0.829
19:10 1018 30.06 847 25.01 20.7 69.2 38 6 42.8 21.04 0.828
19:11 1018 30.06 847 25.01 20.7 69.2 39 6.3 43.4 21.01 0.827
19:12 1018 30.06 847 25.01 20.6 69.1 38 5.9 42.7 20.93 0.824
19:13 1018 30.06 847 25.01 20.6 69.1 37 5.7 42.3 20.91 0.823
19:14 1018 30.06 847 25.01 20.6 69.1 38 6.1 43 20.93 0.824
19:15 1018 30.06 847 25.01 20.6 69.1 38 5.8 42.4 20.98 0.826
19:16 1018 30.06 847 25.01 20.6 69 39 6.2 43.2 20.94 0.824
19:17 1018 30.06 847 25.01 20.5 68.9 38 6 42.9 20.87 0.822
19:18 1018 30.06 847 25.01 20.5 68.9 37 5.6 42.1 20.9 0.823
19:19 1018 30.06 847 25.01 20.6 69 38 6 42.7 20.96 0.825
19:20 1018 30.06 847 25.01 20.6 69.1 38 6.1 42.9 20.92 0.824
19:21 1018 30.06 847 25.01 20.5 68.9 38 5.7 42.3 20.87 0.822
19:22 1018 30.06 847 25.01 20.5 68.9 38 6 42.7 20.85 0.821
19:23 1018 30.06 847 25.01 20.5 68.9 38 6 42.9 20.87 0.822
19:24 1018 30.06 847 25.01 20.5 68.8 39 6.1 43 20.85 0.821
19:25 1018 30.06 847 25.01 20.4 68.7 40 6.4 43.5 20.74 0.817
19:26 1018 30.06 847 25.01 20.3 68.5 39 6.2 43.1 20.69 0.815
19:27 1018 30.06 847 25.01 20.3 68.6 39 6.2 43.1 20.72 0.816
19:28 1018 30.06 847 25.01 20.3 68.6 38 5.7 42.3 20.7 0.815
19:29 1018 30.06 847 25.01 20.4 68.7 38 5.6 42 20.79 0.819
19:30 1018 30.06 847 25.01 20.4 68.8 39 6.1 42.9 20.74 0.817
19:31 1018 30.06 847 25.01 20.3 68.6 38 5.7 42.2 20.71 0.815
19:32 1018 30.06 847 25.01 20.4 68.7 39 6 42.8 20.72 0.816
19:33 1018 30.06 847 25.01 20.4 68.7 38 5.6 42.1 20.72 0.816
19:34 1017 30.03 847 25.01 20.4 68.8 38 5.8 42.4 20.78 0.818
19:35 1017 30.03 847 25.01 20.5 68.8 37 5.5 41.9 20.83 0.82
19:36 1018 30.06 847 25.01 20.4 68.7 38 5.9 42.5 20.77 0.818
19:37 1017 30.03 847 25.01 20.4 68.7 38 5.6 42.1 20.73 0.816
19:38 1017 30.03 847 25.01 20.3 68.6 39 6 42.9 20.68 0.814
19:39 1017 30.03 847 25.01 20.3 68.5 39 5.9 42.6 20.62 0.812
19:40 1017 30.03 847 25.01 20.2 68.4 39 5.9 42.6 20.57 0.81
19:41 1017 30.03 847 25.01 20.2 68.4 39 5.8 42.5 20.55 0.809
19:42 1017 30.03 847 25.01 20.2 68.4 38 5.6 42 20.56 0.809
19:43 1017 30.03 847 25.01 20.2 68.4 38 5.7 42.2 20.65 0.813
19:44 1017 30.03 847 25.01 20.3 68.5 38 5.8 42.5 20.57 0.81
19:45 1017 30.03 847 25.01 20.2 68.4 38 5.5 42 20.6 0.811
19:46 1017 30.03 847 25.01 20.2 68.4 39 5.9 42.6 20.61 0.811
19:47 1017 30.03 847 25.01 20.2 68.3 38 5.7 42.3 20.54 0.809
19:48 1017 30.03 847 25.01 20.2 68.3 38 5.6 42.1 20.55 0.809
19:49 1017 30.03 847 25.01 20.2 68.3 38 5.7 42.3 20.55 0.809
19:50 1017 30.03 847 25.01 20.2 68.3 39 5.8 42.4 20.5 0.807
19:51 1018 30.06 847 25.01 20.1 68.2 39 5.8 42.5 20.42 0.804
19:52 1017 30.03 847 25.01 20 68.1 39 5.7 42.2 20.38 0.802
19:53 1017 30.03 847 25.01 20 68.1 39 5.7 42.3 20.39 0.803
19:54 1017 30.03 847 25.01 20 68.1 39 5.9 42.7 20.38 0.802
19:55 1017 30.03 847 25.01 20 68 39 5.9 42.7 20.37 0.802
19:56 1017 30.03 847 25.01 20 68 39 5.9 42.7 20.31 0.8
19:57 1017 30.03 847 25.01 19.9 67.9 39 5.7 42.3 20.3 0.799
19:58 1017 30.03 847 25.01 20 68 39 5.9 42.6 20.28 0.798
19:59 1017 30.03 847 25.01 20 67.9 39 5.7 42.3 20.28 0.798
20:00 1017 30.03 847 25.01 20 67.9 40 6 42.8 20.31 0.8
20:01 1017 30.03 847 25.01 19.9 67.7 40 6 42.9 20.22 0.796
20:02 1017 30.03 847 25.01 19.8 67.7 40 6 42.7 20.15 0.793
20:03 1017 30.03 847 25.01 19.8 67.6 40 6 42.9 20.14 0.793
20:04 1017 30.03 847 25.01 19.7 67.5 41 6.1 43 20.1 0.791
20:05 1017 30.03 847 25.01 19.7 67.4 40 6 42.7 20.08 0.791
20:06 1017 30.03 847 25.01 19.7 67.4 41 6 42.9 20.02 0.788
20:07 1017 30.03 846 24.98 19.6 67.3 41 6.1 43 19.97 0.786
20:08 1017 30.03 847 25.01 19.6 67.3 41 6.2 43.1 19.92 0.784
20:09 1017 30.03 847 25.01 19.6 67.2 41 6.1 43 19.93 0.785
20:10 1017 30.03 847 25.01 19.6 67.2 41 6.1 43 19.93 0.785
20:11 1017 30.03 847 25.01 19.6 67.2 41 6 42.8 19.9 0.783
20:12 1017 30.03 847 25.01 19.6 67.3 41 6 42.7 19.96 0.786
20:13 1017 30.03 847 25.01 19.7 67.4 41 6 42.9 20.03 0.789
20:14 1017 30.03 847 25.01 19.6 67.4 41 6.3 43.3 19.97 0.786
20:15 1017 30.03 847 25.01 19.5 67.2 41 6 42.9 19.88 0.783
20:16 1018 30.06 847 25.01 19.5 67.1 41 6 42.8 19.86 0.782
20:17 1017 30.03 847 25.01 19.5 67.1 41 6.2 43.1 19.86 0.782
20:18 1018 30.06 847 25.01 19.5 67.1 42 6.3 43.3 19.84 0.781
20:19 1018 30.06 847 25.01 19.4 66.9 41 6.1 43 19.77 0.778
20:20 1018 30.06 847 25.01 19.4 66.9 41 6 42.8 19.78 0.779
20:21 1018 30.06 847 25.01 19.4 66.9 42 6.1 43 19.76 0.778
20:22 1018 30.06 847 25.01 19.4 66.9 42 6.2 43.1 19.7 0.776
20:23 1018 30.06 847 25.01 19.3 66.8 42 6.1 42.9 19.67 0.774
20:24 1018 30.06 847 25.01 19.3 66.8 42 6.1 42.9 19.71 0.776
20:25 1018 30.06 847 25.01 19.3 66.8 42 6.3 43.4 19.64 0.773
20:26 1018 30.06 847 25.01 19.2 66.6 43 6.4 43.5 19.56 0.77
20:27 1018 30.06 847 25.01 19.2 66.5 42 6.1 42.9 19.56 0.77
20:28 1018 30.06 847 25.01 19.3 66.7 42 6.1 43.1 19.59 0.771
20:29 1018 30.06 847 25.01 19.3 66.7 42 6 42.9 19.59 0.771
20:30 1018 30.06 847 25.01 19.3 66.7 42 6.1 43 19.64 0.773
20:31 1018 30.06 847 25.01 19.3 66.7 42 6.1 43 19.64 0.773
20:32 1018 30.06 847 25.01 19.3 66.7 42 6.1 43 19.63 0.773
20:33 1018 30.06 847 25.01 19.3 66.8 42 6.1 42.9 19.67 0.774
20:34 1018 30.06 847 25.01 19.3 66.7 42 6.2 43.2 19.6 0.772
20:35 1018 30.06 847 25.01 19.2 66.6 42 6.1 42.9 19.61 0.772
20:36 1018 30.06 847 25.01 19.3 66.7 42 6.2 43.2 19.65 0.774
20:37 1018 30.06 847 25.01 19.3 66.7 42 6.3 43.3 19.58 0.771
20:38 1018 30.06 847 25.01 19.2 66.5 42 6.1 42.9 19.55 0.77
20:39 1018 30.06 847 25.01 19.2 66.6 42 6.1 43 19.56 0.77
20:40 1018 30.06 847 25.01 19.2 66.5 42 6 42.8 19.56 0.77
20:41 1017 30.03 847 25.01 19.3 66.7 42 6 42.8 19.62 0.772
20:42 1018 30.06 847 25.01 19.3 66.7 42 6.1 42.9 19.64 0.773
20:43 1017 30.03 847 25.01 19.3 66.7 42 6.1 43 19.63 0.773
20:44 1017 30.03 847 25.01 19.3 66.7 41 6 42.8 19.67 0.774
20:45 1017 30.03 847 25.01 19.3 66.8 41 6 42.9 19.72 0.776
20:46 1017 30.03 847 25.01 19.3 66.8 42 6.2 43.1 19.64 0.773
20:47 1017 30.03 847 25.01 19.3 66.7 42 6.1 43 19.64 0.773
20:48 1017 30.03 847 25.01 19.2 66.6 42 6 42.9 19.61 0.772
20:49 1017 30.03 847 25.01 19.3 66.7 42 6 42.9 19.63 0.773
20:50 1017 30.03 847 25.01 19.3 66.8 41 6 42.7 19.68 0.775
20:51 1017 30.03 847 25.01 19.3 66.8 41 6 42.8 19.68 0.775
20:52 1018 30.06 847 25.01 19.3 66.7 42 6.1 42.9 19.61 0.772
20:53 1018 30.06 847 25.01 19.3 66.7 42 6.1 43.1 19.6 0.772
20:54 1018 30.06 847 25.01 19.2 66.6 42 6.2 43.1 19.57 0.77
20:55 1018 30.06 847 25.01 19.2 66.6 42 6.1 42.9 19.58 0.771
20:56 1018 30.06 847 25.01 19.2 66.5 42 6.1 43 19.56 0.77
20:57 1018 30.06 847 25.01 19.2 66.5 42 6.1 43 19.54 0.769
20:58 1018 30.06 847 25.01 19.1 66.4 43 6.2 43.2 19.48 0.767
20:59 1018 30.06 847 25.01 19.1 66.4 42 6.2 43.1 19.44 0.765
21:00 1018 30.06 847 25.01 19.1 66.3 43 6.4 43.4 19.4 0.764
21:01 1017 30.03 847 25.01 19 66.2 43 6.3 43.3 19.36 0.762
21:02 1018 30.06 847 25.01 19 66.1 43 6.3 43.3 19.31 0.76
21:03 1017 30.03 847 25.01 18.9 66.1 42 6 42.8 19.36 0.762
21:04 1017 30.03 847 25.01 19.1 66.3 43 6.2 43.2 19.49 0.767
21:05 1017 30.03 847 25.01 19.1 66.4 42 6.1 43.1 19.45 0.766
21:06 1017 30.03 847 25.01 19.1 66.4 42 6.1 43 19.48 0.767
21:07 1017 30.03 847 25.01 19.2 66.5 42 6.1 43 19.53 0.769
21:08 1018 30.06 847 25.01 19.2 66.5 43 6.3 43.4 19.5 0.768
21:09 1018 30.06 847 25.01 19.1 66.3 42 6.1 43 19.43 0.765
21:10 1018 30.06 847 25.01 19.1 66.4 42 6.2 43.2 19.46 0.766
21:11 1018 30.06 847 25.01 19.1 66.4 42 6.2 43.1 19.49 0.767
21:12 1018 30.06 847 25.01 19.1 66.4 43 6.3 43.3 19.47 0.767
21:13 1018 30.06 847 25.01 19.1 66.4 43 6.3 43.3 19.49 0.767
21:14 1018 30.06 847 25.01 19.1 66.4 43 6.3 43.4 19.45 0.766
21:15 1018 30.06 847 25.01 19 66.2 43 6.2 43.1 19.39 0.763
21:16 1018 30.06 847 25.01 19 66.2 43 6.2 43.1 19.36 0.762
21:17 1018 30.06 847 25.01 19.1 66.3 43 6.2 43.2 19.45 0.766
21:18 1018 30.06 847 25.01 19 66.3 43 6.2 43.2 19.37 0.763
21:19 1017 30.03 847 25.01 19 66.3 43 6.2 43.1 19.4 0.764
21:20 1017 30.03 847 25.01 19.1 66.3 43 6.4 43.5 19.42 0.765
21:21 1017 30.03 847 25.01 19 66.2 43 6.2 43.1 19.37 0.763
21:22 1017 30.03 847 25.01 19 66.3 43 6.3 43.3 19.4 0.764
21:23 1017 30.03 847 25.01 19 66.2 43 6.2 43.1 19.41 0.764
21:24 1017 30.03 846 24.98 19.1 66.4 42 6.2 43.1 19.45 0.766
21:25 1017 30.03 846 24.98 19.1 66.4 43 6.3 43.4 19.52 0.769
21:26 1017 30.03 847 25.01 19.1 66.3 42 6.1 43.1 19.4 0.764
21:27 1017 30.03 847 25.01 19 66.3 43 6.3 43.3 19.42 0.765
21:28 1017 30.03 846 24.98 19.1 66.3 43 6.2 43.1 19.41 0.764
21:29 1017 30.03 847 25.01 19.1 66.4 43 6.3 43.4 19.42 0.765
21:30 1017 30.03 846 24.98 19 66.3 43 6.2 43.1 19.44 0.765
21:31 1017 30.03 846 24.98 19.1 66.4 42 6.2 43.1 19.51 0.768
21:32 1017 30.03 846 24.98 19.2 66.5 43 6.4 43.5 19.5 0.768
21:33 1017 30.03 847 25.01 19.1 66.3 43 6.4 43.4 19.41 0.764
21:34 1017 30.03 846 24.98 19 66.1 43 6.3 43.3 19.33 0.761
21:35 1017 30.03 846 24.98 19 66.1 43 6.3 43.3 19.29 0.759
21:36 1017 30.03 847 25.01 19 66.1 43 6.2 43.2 19.35 0.762
21:37 1017 30.03 846 24.98 19 66.2 43 6.1 43 19.37 0.763
21:38 1017 30.03 847 25.01 19 66.2 43 6.3 43.3 19.34 0.761
21:39 1017 30.03 846 24.98 19 66.1 43 6.2 43.2 19.32 0.761
21:40 1017 30.03 847 25.01 18.9 66 43 6.2 43.2 19.26 0.758
21:41 1017 30.03 847 25.01 18.9 66 43 6.2 43.1 19.27 0.759
21:42 1017 30.03 846 24.98 18.9 66.1 43 6.1 43 19.28 0.759
21:43 1017 30.03 846 24.98 19 66.1 43 6.2 43.1 19.3 0.76
21:44 1017 30.03 846 24.98 18.9 66 43 6.2 43.2 19.27 0.759
21:45 1017 30.03 847 25.01 18.9 66.1 43 6.3 43.4 19.32 0.761
21:46 1017 30.03 847 25.01 18.9 66.1 43 6.1 43 19.28 0.759
21:47 1017 30.03 846 24.98 18.9 66.1 43 6.1 43 19.28 0.759
21:48 1017 30.03 847 25.01 19 66.1 43 6.1 43 19.38 0.763
21:49 1017 30.03 846 24.98 19 66.2 43 6.2 43.1 19.36 0.762
21:50 1017 30.03 846 24.98 19 66.1 43 6.3 43.3 19.34 0.761
21:51 1017 30.03 846 24.98 18.9 66.1 43 6.3 43.4 19.26 0.758
21:52 1017 30.03 846 24.98 18.8 65.8 43 6.2 43.2 19.16 0.754
21:53 1017 30.03 846 24.98 18.8 65.9 43 6.2 43.2 19.18 0.755
21:54 1017 30.03 846 24.98 18.8 65.9 44 6.4 43.4 19.2 0.756
21:55 1017 30.03 846 24.98 18.8 65.9 43 6.2 43.2 19.14 0.754
21:56 1017 30.03 846 24.98 18.8 65.8 43 6.1 43 19.18 0.755
21:57 1017 30.03 846 24.98 18.9 66 43 6.2 43.1 19.27 0.759
21:58 1017 30.03 846 24.98 19 66.1 43 6.3 43.3 19.27 0.759
21:59 1017 30.03 847 25.01 18.9 66 43 6.2 43.2 19.23 0.757
22:00 1017 30.03 846 24.98 18.8 65.9 43 6 42.9 19.18 0.755
22:01 1017 30.03 847 25.01 18.8 65.9 43 6.2 43.2 19.22 0.757
22:02 1017 30.03 847 25.01 18.9 66 44 6.4 43.5 19.19 0.756
22:03 1017 30.03 847 25.01 18.8 65.8 44 6.3 43.3 19.11 0.752
22:04 1017 30.03 847 25.01 18.7 65.6 44 6.4 43.4 19.04 0.75
22:05 1017 30.03 847 25.01 18.7 65.6 44 6.4 43.5 19 0.748
22:06 1018 30.06 847 25.01 18.6 65.5 44 6.3 43.3 18.97 0.747
22:07 1018 30.06 847 25.01 18.7 65.7 43 6.1 43 19.02 0.749
22:08 1018 30.06 847 25.01 18.7 65.7 43 6.1 42.9 19.08 0.751
22:09 1018 30.06 847 25.01 18.8 65.8 43 6.2 43.1 19.12 0.753
22:10 1018 30.06 847 25.01 18.8 65.8 43 6.2 43.2 19.15 0.754
22:11 1018 30.06 847 25.01 18.8 65.8 43 6.2 43.2 19.15 0.754
22:12 1018 30.06 847 25.01 18.8 65.9 43 6.2 43.2 19.21 0.756
22:13 1018 30.06 847 25.01 18.8 65.9 43 6.2 43.2 19.2 0.756
22:14 1018 30.06 847 25.01 18.8 65.9 43 6.2 43.2 19.17 0.755
22:15 1018 30.06 847 25.01 18.8 65.9 43 6.1 43 19.23 0.757
22:16 1018 30.06 847 25.01 18.9 66 43 6.2 43.2 19.21 0.756
22:17 1018 30.06 847 25.01 18.9 65.9 44 6.4 43.5 19.19 0.756
22:18 1018 30.06 847 25.01 18.8 65.8 44 6.3 43.4 19.1 0.752
22:19 1018 30.06 847 25.01 18.8 65.8 44 6.3 43.3 19.13 0.753
22:20 1018 30.06 847 25.01 18.8 65.8 44 6.4 43.5 19.12 0.753
22:21 1018 30.06 847 25.01 18.8 65.8 43 6.2 43.1 19.12 0.753
22:22 1018 30.06 847 25.01 18.8 65.8 44 6.4 43.6 19.16 0.754
22:23 1018 30.06 847 25.01 18.8 65.8 43 6.2 43.1 19.1 0.752
22:24 1018 30.06 847 25.01 18.8 65.8 44 6.3 43.3 19.17 0.755
22:25 1018 30.06 848 25.04 18.8 65.9 43 6.2 43.1 19.21 0.756
22:26 1018 30.06 848 25.04 18.9 66.1 43 6.2 43.2 19.27 0.759
22:27 1018 30.06 848 25.04 18.9 66 43 6.2 43.1 19.24 0.757
22:28 1018 30.06 848 25.04 18.9 66 43 6.3 43.3 19.23 0.757
22:29 1018 30.06 848 25.04 18.8 65.9 43 6.2 43.2 19.17 0.755
22:30 1018 30.06 848 25.04 18.8 65.9 43 6.1 42.9 19.21 0.756
22:31 1018 30.06 848 25.04 18.9 66 43 6.3 43.3 19.18 0.755
22:32 1019 30.09 848 25.04 18.7 65.7 44 6.3 43.4 19.1 0.752
22:33 1019 30.09 848 25.04 18.7 65.7 44 6.2 43.2 19.04 0.75
22:34 1019 30.09 848 25.04 18.7 65.6 44 6.4 43.5 19.03 0.749
22:35 1019 30.09 848 25.04 18.6 65.6 44 6.4 43.5 19.01 0.748
22:36 1019 30.09 848 25.04 18.6 65.5 45 6.4 43.6 18.97 0.747
22:37 1019 30.09 848 25.04 18.6 65.4 44 6.2 43.2 18.91 0.744
22:38 1019 30.09 848 25.04 18.6 65.5 44 6.4 43.5 18.98 0.747
22:39 1019 30.09 848 25.04 18.6 65.5 44 6.3 43.3 18.93 0.745
22:40 1019 30.09 848 25.04 18.6 65.5 45 6.4 43.6 19.01 0.748
22:41 1019 30.09 848 25.04 18.6 65.4 44 6.3 43.3 18.93 0.745
22:42 1019 30.09 848 25.04 18.6 65.5 44 6.4 43.5 18.97 0.747
22:43 1019 30.09 848 25.04 18.6 65.4 44 6.3 43.4 18.9 0.744
22:44 1019 30.09 848 25.04 18.5 65.3 45 6.6 43.9 18.87 0.743
22:45 1019 30.09 848 25.04 18.5 65.3 45 6.4 43.6 18.8 0.74
22:46 1019 30.09 848 25.04 18.4 65.2 45 6.4 43.4 18.78 0.739
22:47 1019 30.09 848 25.04 18.5 65.3 44 6.2 43.1 18.85 0.742
22:48 1019 30.09 848 25.04 18.6 65.5 44 6.3 43.3 18.99 0.748
22:49 1019 30.09 848 25.04 18.6 65.6 44 6.3 43.3 19.03 0.749
22:50 1019 30.09 848 25.04 18.7 65.7 44 6.4 43.5 19.04 0.75
22:51 1019 30.09 848 25.04 18.7 65.7 44 6.3 43.3 19.04 0.75
22:52 1019 30.09 849 25.07 18.7 65.6 44 6.5 43.6 19.05 0.75
22:53 1019 30.09 849 25.07 18.7 65.7 44 6.2 43.2 19.08 0.751
22:54 1020 30.12 849 25.07 18.7 65.7 44 6.4 43.5 19.11 0.752
22:55 1020 30.12 849 25.07 18.7 65.7 43 6 42.9 19.09 0.752
22:56 1020 30.12 849 25.07 18.8 65.8 44 6.4 43.5 19.19 0.756
22:57 1020 30.12 849 25.07 18.9 66 44 6.6 43.8 19.19 0.756
22:58 1020 30.12 849 25.07 18.8 65.8 45 6.6 44 19.17 0.755
22:59 1020 30.12 849 25.07 18.8 65.8 44 6.5 43.8 19.12 0.753
23:00 1020 30.12 849 25.07 18.7 65.7 44 6.4 43.5 19.1 0.752
23:01 1020 30.12 849 25.07 18.8 65.8 44 6.3 43.3 19.06 0.75
23:02 1020 30.12 849 25.07 18.7 65.7 44 6.3 43.4 19.09 0.752
23:03 1020 30.12 849 25.07 18.7 65.7 46 6.9 44.4 19.04 0.75
23:04 1020 30.12 850 25.1 18.6 65.5 45 6.7 44 18.96 0.746
23:05 1020 30.12 850 25.1 18.6 65.4 47 7.1 44.8 18.87 0.743
23:06 1020 30.12 850 25.1 18.5 65.4 46 6.7 44.1 18.9 0.744
23:07 1020 30.12 850 25.1 18.6 65.4 45 6.5 43.7 18.92 0.745
23:08 1021 30.15 850 25.1 18.6 65.4 44 6.4 43.5 18.94 0.746
23:09 1021 30.15 850 25.1 18.6 65.5 45 6.7 44.1 18.99 0.748
23:10 1021 30.15 850 25.1 18.6 65.5 46 6.8 44.2 18.97 0.747
23:11 1021 30.15 850 25.1 18.6 65.5 44 6.1 43 18.94 0.746
23:12 1021 30.15 850 25.1 18.7 65.7 43 6 42.8 19.08 0.751
23:13 1021 30.15 850 25.1 18.8 65.8 43 6 42.9 19.09 0.752
23:14 1021 30.15 850 25.1 18.8 65.8 43 6.2 43.1 19.11 0.752
23:15 1020 30.12 850 25.1 18.7 65.7 42 5.9 42.6 19.11 0.752
23:16 1020 30.12 850 25.1 18.8 65.8 42 5.9 42.5 19.1 0.752
23:17 1020 30.12 850 25.1 18.8 65.8 42 5.9 42.6 19.14 0.754
23:18 1020 30.12 850 25.1 18.8 65.8 43 6 42.9 19.12 0.753
23:19 1020 30.12 850 25.1 18.7 65.7 42 5.8 42.4 19.11 0.752
23:20 1020 30.12 850 25.1 18.7 65.7 43 6 42.7 19.15 0.754
23:21 1020 30.12 850 25.1 18.7 65.6 44 6.2 43.2 19.04 0.75
23:22 1020 30.12 850 25.1 18.6 65.4 44 6.2 43.2 18.93 0.745
23:23 1020 30.12 850 25.1 18.5 65.2 44 6.2 43.2 18.85 0.742
23:24 1020 30.12 850 25.1 18.4 65.2 44 6.2 43.2 18.82 0.741
23:25 1020 30.12 850 25.1 18.4 65 44 6.1 42.9 18.73 0.737
23:26 1020 30.12 850 25.1 18.3 65 43 5.8 42.4 18.68 0.735
23:27 1020 30.12 850 25.1 18.3 65 44 5.9 42.6 18.66 0.735
23:28 1020 30.12 850 25.1 18.3 65 44 5.9 42.6 18.66 0.735
23:29 1020 30.12 850 25.1 18.3 64.9 44 6 42.7 18.62 0.733
23:30 1020 30.12 850 25.1 18.2 64.8 43 5.7 42.3 18.57 0.731
23:31 1020 30.12 850 25.1 18.2 64.8 44 5.8 42.5 18.57 0.731
23:32 1020 30.12 850 25.1 18.2 64.8 45 6.2 43.2 18.61 0.733
23:33 1020 30.12 850 25.1 18.2 64.7 44 5.9 42.6 18.6 0.732
23:34 1020 30.12 850 25.1 18.2 64.8 44 5.9 42.7 18.57 0.731
23:35 1020 30.12 850 25.1 18.2 64.7 44 5.9 42.5 18.57 0.731
23:36 1020 30.12 850 25.1 18.2 64.8 45 6.1 43 18.56 0.731
23:37 1020 30.12 850 25.1 18.2 64.7 45 6.1 42.9 18.56 0.731
23:38 1020 30.12 850 25.1 18.1 64.6 45 6.3 43.3 18.5 0.728
23:39 1020 30.12 850 25.1 18.1 64.5 45 6.2 43.1 18.4 0.724
23:40 1020 30.12 850 25.1 18 64.4 46 6.3 43.3 18.35 0.722
23:41 1020 30.12 850 25.1 18 64.3 46 6.4 43.5 18.31 0.721
23:42 1020 30.12 850 25.1 17.9 64.1 47 6.4 43.5 18.21 0.717
23:43 1020 30.12 850 25.1 17.8 64 46 6.3 43.3 18.16 0.715
23:44 1020 30.12 850 25.1 17.8 64 46 6.2 43.2 18.12 0.713
23:45 1020 30.12 850 25.1 17.7 63.9 46 6.1 43 18.1 0.713
23:46 1020 30.12 850 25.1 17.7 63.9 46 6 42.9 18.13 0.714
23:47 1020 30.12 850 25.1 17.8 64 47 6.4 43.6 18.12 0.713
23:48 1020 30.12 850 25.1 17.7 63.9 48 6.5 43.7 18.05 0.711
23:49 1020 30.12 850 25.1 17.7 63.8 47 6.4 43.6 17.98 0.708
23:50 1020 30.12 850 25.1 17.6 63.7 47 6.4 43.5 17.95 0.707
23:51 1020 30.12 850 25.1 17.6 63.6 47 6.2 43.2 17.97 0.707
23:52 1020 30.12 850 25.1 17.6 63.7 47 6.4 43.5 17.97 0.707
23:53 1020 30.12 850 25.1 17.6 63.7 47 6.3 43.4 17.97 0.707
23:54 1020 30.12 849 25.07 17.6 63.7 47 6.3 43.3 17.97 0.707
23:55 1020 30.12 849 25.07 17.6 63.8 48 6.5 43.7 18.03 0.71
23:56 1020 30.12 849 25.07 17.7 63.8 48 6.5 43.7 18.03 0.71
23:57 1020 30.12 849 25.07 17.6 63.8 48 6.7 44 18.01 0.709
23:58 1020 30.12 849 25.07 17.6 63.7 48 6.6 43.9 17.97 0.707
23:59 1020 30.12 849 25.07 17.5 63.6 49 7 44.5 17.92 0.706
24:00 1020 30.12 849 25.07 17.4 63.3 50 7.1 44.8 17.72 0.698